Observation data for Wall on 04/24/2019      Previous  Date  Next       Current Mesonet Observations  Soil Data  Daily Summary Page  Observations in Plain Language
KWA1 240500Z 03019KT 17/15 A2998 RMK A01 T01710146  RH  086%=      5-min Rain = 0
KWA1 240501Z 03021KT 17/14 A2998 RMK A01 T01710144  RH  084%=      5-min Rain = 0
KWA1 240502Z 02020KT 17/14 A2998 RMK A01 T01700143  RH  084%=      5-min Rain = 0
KWA1 240503Z 02021KT 17/14 A2998 RMK A01 T01700142  RH  083%=      5-min Rain = 0
KWA1 240504Z 02016KT 17/14 A2998 RMK A01 T01700142  RH  083%=      5-min Rain = 0
KWA1 240505Z 03018KT 17/14 A2998 RMK A01 T01700141  RH  083%=      5-min Rain = 0
KWA1 240506Z 02020KT 17/14 A2998 RMK A01 T01700141  RH  083%=      5-min Rain = 0
KWA1 240507Z 02017KT 17/14 A2998 RMK A01 T01690141  RH  083%=      5-min Rain = 0
KWA1 240508Z 03015KT 17/14 A2998 RMK A01 T01680141  RH  084%=      5-min Rain = 0
KWA1 240509Z 03016KT 17/14 A2998 RMK A01 T01680140  RH  083%=      5-min Rain = 0
KWA1 240510Z 03019KT 17/14 A2999 RMK A01 T01680138  RH  083%=      5-min Rain = 0
KWA1 240511Z 03016KT 17/14 A2999 RMK A01 T01680138  RH  083%=      5-min Rain = 0
KWA1 240512Z 03015KT 17/14 A2999 RMK A01 T01670138  RH  083%=      5-min Rain = 0
KWA1 240513Z 03018KT 17/14 A2999 RMK A01 T01670139  RH  084%=      5-min Rain = 0
KWA1 240514Z 03017KT 17/14 A2999 RMK A01 T01670140  RH  084%=      5-min Rain = 0
KWA1 240515Z 02017KT 17/14 A2999 RMK A01 T01660141  RH  085%=      5-min Rain = 0
KWA1 240516Z 02018KT 17/14 A2999 RMK A01 T01650141  RH  086%=      5-min Rain = 0
KWA1 240517Z 02020KT 16/14 A2999 RMK A01 T01640141  RH  086%=      5-min Rain = 0
KWA1 240518Z 02020KT 16/14 A2999 RMK A01 T01640141  RH  086%=      5-min Rain = 0
KWA1 240519Z 02019KT 16/14 A2999 RMK A01 T01640140  RH  086%=      5-min Rain = 0
KWA1 240520Z 02017G22KT 16/14 A2999 RMK A01 T01640140  RH  086%=      5-min Rain = 0
KWA1 240521Z 02018KT 17/14 A2999 RMK A01 T01650141  RH  086%=      5-min Rain = 0
KWA1 240522Z 02019KT 16/14 A30 RMK A01 T01640140  RH  086%=      5-min Rain = 0
KWA1 240523Z 01017KT 16/14 A30 RMK A01 T01640141  RH  086%=      5-min Rain = 0
KWA1 240524Z 01020KT 16/14 A3001 RMK A01 T01640141  RH  086%=      5-min Rain = 0
KWA1 240525Z 01021KT 16/14 A3001 RMK A01 T01640140  RH  086%=      5-min Rain = 0
KWA1 240526Z 00021KT 16/14 A3001 RMK A01 T01640141  RH  086%=      5-min Rain = 0
KWA1 240527Z 00020KT 16/14 A3001 RMK A01 T01630142  RH  087%=      5-min Rain = 0
KWA1 240528Z 00020KT 16/14 A3001 RMK A01 T01630142  RH  088%=      5-min Rain = 0
KWA1 240529Z 00022KT 16/14 A3001 RMK A01 T01630142  RH  088%=      5-min Rain = 0
KWA1 240530Z 00021KT 16/14 A3001 RMK A01 T01620142  RH  088%=      5-min Rain = 0
KWA1 240531Z 00022KT 16/14 A30 RMK A01 T01620143  RH  088%=      5-min Rain = 0.01
KWA1 240532Z 00019KT 16/15 A30 RMK A01 T01610145  RH  090%=      5-min Rain = 0
KWA1 240533Z 01019KT 16/15 A30 RMK A01 T01600147  RH  092%=      5-min Rain = 0.01
KWA1 240534Z 02022KT 16/15 A30 RMK A01 T01590146  RH  092%=      5-min Rain = 0
KWA1 240535Z 02020KT 16/15 A2999 RMK A01 T01580146  RH  092%=      5-min Rain = 0
KWA1 240536Z 02019KT 16/15 A2999 RMK A01 T01580145  RH  092%=      5-min Rain = 0.01
KWA1 240537Z 02021KT 16/15 A2999 RMK A01 T01570145  RH  092%=      5-min Rain = 0.02
KWA1 240538Z 02020KT 16/14 A2999 RMK A01 T01560144  RH  093%=      5-min Rain = 0.01
KWA1 240539Z 02019KT 16/15 A2999 RMK A01 T01550145  RH  094%=      5-min Rain = 0.02
KWA1 240540Z 02020KT 16/15 A2999 RMK A01 T01550145  RH  094%=      5-min Rain = 0
KWA1 240541Z 02018KT 16/15 A30 RMK A01 T01550145  RH  094%=      5-min Rain = 0.01
KWA1 240542Z 02018KT 15/15 A30 RMK A01 T01540145  RH  094%=      5-min Rain = 0.01
KWA1 240543Z 02018KT 15/14 A30 RMK A01 T01530144  RH  094%=      5-min Rain = 0.01
KWA1 240544Z 02019KT 15/14 A30 RMK A01 T01530144  RH  095%=      5-min Rain = 0.01
KWA1 240545Z 02019KT 15/14 A30 RMK A01 T01530144  RH  095%=      5-min Rain = 0
KWA1 240546Z 02016KT 15/14 A30 RMK A01 T01530144  RH  095%=      5-min Rain = 0.01
KWA1 240547Z 02019KT 15/14 A30 RMK A01 T01520144  RH  095%=      5-min Rain = 0
KWA1 240548Z 02018KT 15/14 A30 RMK A01 T01520143  RH  095%=      5-min Rain = 0.02
KWA1 240549Z 02017KT 15/14 A2999 RMK A01 T01510142  RH  094%=      5-min Rain = 0.02
KWA1 240550Z 02016KT 15/14 A2999 RMK A01 T01510143  RH  095%=      5-min Rain = 0.01
KWA1 240551Z 02017KT 15/14 A2999 RMK A01 T01510143  RH  095%=      5-min Rain = 0.02
KWA1 240552Z 02016KT 15/14 A2999 RMK A01 T01500143  RH  095%=      5-min Rain = 0
KWA1 240553Z 02020KT 15/14 A2999 RMK A01 T01500143  RH  095%=      5-min Rain = 0.01
KWA1 240554Z 02018KT 15/14 A2999 RMK A01 T01500142  RH  095%=      5-min Rain = 0
KWA1 240555Z 02018KT 15/14 A2999 RMK A01 T01500142  RH  095%=      5-min Rain = 0
KWA1 240556Z 02019KT 15/14 A2998 RMK A01 T01500142  RH  095%=      5-min Rain = 0
KWA1 240557Z 02020KT 15/14 A2998 RMK A01 T01500142  RH  095%=      5-min Rain = 0.01
KWA1 240558Z 03018KT 15/14 A2998 RMK A01 T01500141  RH  094%=      5-min Rain = 0
KWA1 240559Z 03017KT 15/14 A2998 RMK A01 T01500141  RH  094%=      5-min Rain = 0
KWA1 240600Z 03021KT 15/14 A2998 RMK A01 T01500141  RH  094%=      5-min Rain = 0
KWA1 240601Z 03019KT 15/14 A2997 RMK A01 T01500141  RH  094%=      5-min Rain = 0
KWA1 240602Z 03017KT 15/14 A2997 RMK A01 T01500141  RH  094%=      5-min Rain = 0.01
KWA1 240603Z 03018KT 15/14 A2997 RMK A01 T01490141  RH  095%=      5-min Rain = 0
KWA1 240604Z 03019KT 15/14 A2997 RMK A01 T01500141  RH  095%=      5-min Rain = 0.01
KWA1 240605Z 04017KT 15/14 A2998 RMK A01 T01500141  RH  095%=      5-min Rain = 0
KWA1 240606Z 04016KT 15/14 A2998 RMK A01 T01490141  RH  095%=      5-min Rain = 0.01
KWA1 240607Z 04013KT 15/14 A2998 RMK A01 T01490141  RH  095%=      5-min Rain = 0
KWA1 240608Z 04015KT 15/14 A2999 RMK A01 T01500141  RH  095%=      5-min Rain = 0
KWA1 240609Z 05014KT 15/14 A2999 RMK A01 T01490141  RH  095%=      5-min Rain = 0.01
KWA1 240610Z 05015KT 15/14 A2999 RMK A01 T01500141  RH  095%=      5-min Rain = 0
KWA1 240611Z 05013KT 15/14 A2999 RMK A01 T01500142  RH  095%=      5-min Rain = 0
KWA1 240612Z 05013KT 15/14 A2999 RMK A01 T01500142  RH  095%=      5-min Rain = 0
KWA1 240613Z 05013KT 15/14 A2999 RMK A01 T01500142  RH  095%=      5-min Rain = 0
KWA1 240614Z 05013KT 15/14 A2999 RMK A01 T01500142  RH  095%=      5-min Rain = 0
KWA1 240615Z 05011KT 15/14 A2999 RMK A01 T01500142  RH  095%=      5-min Rain = 0.01
KWA1 240616Z 05012KT 15/14 A2999 RMK A01 T01500142  RH  095%=      5-min Rain = 0.01
KWA1 240617Z 05011KT 15/14 A30 RMK A01 T01500142  RH  095%=      5-min Rain = 0.02
KWA1 240618Z 05010KT 15/14 A30 RMK A01 T01500142  RH  095%=      5-min Rain = 0.02
KWA1 240619Z 05011KT 15/14 A30 RMK A01 T01510143  RH  095%=      5-min Rain = 0.02
KWA1 240620Z 05011KT 15/14 A30 RMK A01 T01500143  RH  095%=      5-min Rain = 0.01
KWA1 240621Z 05013KT 15/14 A2999 RMK A01 T01500143  RH  095%=      5-min Rain = 0.01
KWA1 240622Z 05011KT 15/14 A2999 RMK A01 T01500143  RH  095%=      5-min Rain = 0.01
KWA1 240623Z 05012KT 15/14 A2999 RMK A01 T01500143  RH  095%=      5-min Rain = 0
KWA1 240624Z 05011KT 15/14 A2999 RMK A01 T01500143  RH  096%=      5-min Rain = 0.01
KWA1 240625Z 05011KT 15/14 A2999 RMK A01 T01500143  RH  096%=      5-min Rain = 0.01
KWA1 240626Z 05011KT 15/14 A2999 RMK A01 T01500144  RH  096%=      5-min Rain = 0
KWA1 240627Z 05011KT 15/14 A2999 RMK A01 T01500144  RH  096%=      5-min Rain = 0.01
KWA1 240628Z 05013KT 15/14 A2999 RMK A01 T01500144  RH  096%=      5-min Rain = 0
KWA1 240629Z 05012KT 15/14 A2999 RMK A01 T01500144  RH  096%=      5-min Rain = 0
KWA1 240630Z 05011KT 15/14 A2998 RMK A01 T01500144  RH  096%=      5-min Rain = 0.01
KWA1 240631Z 05012KT 15/14 A2998 RMK A01 T01500144  RH  096%=      5-min Rain = 0
KWA1 240632Z 05012KT 15/14 A2998 RMK A01 T01500144  RH  096%=      5-min Rain = 0
KWA1 240633Z 05011KT 15/15 A2998 RMK A01 T01500145  RH  096%=      5-min Rain = 0
KWA1 240634Z 05010KT 15/15 A2998 RMK A01 T01500145  RH  097%=      5-min Rain = 0
KWA1 240635Z 06010KT 15/15 A2998 RMK A01 T01500145  RH  097%=      5-min Rain = 0
KWA1 240636Z 06009KT 15/15 A2998 RMK A01 T01510146  RH  097%=      5-min Rain = 0
KWA1 240637Z 05010KT 15/15 A2998 RMK A01 T01500146  RH  097%=      5-min Rain = 0
KWA1 240638Z 06009KT 15/15 A2998 RMK A01 T01500146  RH  097%=      5-min Rain = 0.01
KWA1 240639Z 06010KT 15/15 A2998 RMK A01 T01500146  RH  097%=      5-min Rain = 0
KWA1 240640Z 05011KT 15/15 A2998 RMK A01 T01500145  RH  097%=      5-min Rain = 0
KWA1 240641Z 05010KT 15/15 A2998 RMK A01 T01500145  RH  097%=      5-min Rain = 0
KWA1 240642Z 05013KT 15/14 A2998 RMK A01 T01500144  RH  096%=      5-min Rain = 0.01
KWA1 240643Z 05011KT 15/14 A2998 RMK A01 T01500143  RH  095%=      5-min Rain = 0
KWA1 240644Z 05010KT 15/14 A2998 RMK A01 T01500142  RH  095%=      5-min Rain = 0
KWA1 240645Z 06011KT 15/14 A2998 RMK A01 T01510143  RH  095%=      5-min Rain = 0
KWA1 240646Z 05012KT 15/14 A2998 RMK A01 T01510143  RH  095%=      5-min Rain = 0.01
KWA1 240647Z 06012KT 15/14 A2998 RMK A01 T01510143  RH  095%=      5-min Rain = 0.01
KWA1 240648Z 06011KT 15/14 A2998 RMK A01 T01510143  RH  095%=      5-min Rain = 0
KWA1 240649Z 06012KT 15/14 A2998 RMK A01 T01520144  RH  095%=      5-min Rain = 0.01
KWA1 240650Z 07013KT 15/15 A2998 RMK A01 T01520145  RH  096%=      5-min Rain = 0
KWA1 240651Z 07012KT 15/15 A2997 RMK A01 T01520145  RH  096%=      5-min Rain = 0.01
KWA1 240652Z 07014KT 15/15 A2997 RMK A01 T01520146  RH  096%=      5-min Rain = 0
KWA1 240653Z 07013KT 15/15 A2997 RMK A01 T01510145  RH  096%=      5-min Rain = 0
KWA1 240654Z 07014KT 15/15 A2997 RMK A01 T01510145  RH  096%=      5-min Rain = 0
KWA1 240655Z 07014KT 15/15 A2998 RMK A01 T01510145  RH  096%=      5-min Rain = 0
KWA1 240656Z 07012KT 15/15 A2997 RMK A01 T01510145  RH  096%=      5-min Rain = 0.01
KWA1 240657Z 07014KT 15/15 A2998 RMK A01 T01510145  RH  096%=      5-min Rain = 0
KWA1 240658Z 07014KT 15/15 A2998 RMK A01 T01510145  RH  096%=      5-min Rain = 0
KWA1 240659Z 07013KT 15/15 A2997 RMK A01 T01510145  RH  096%=      5-min Rain = 0
KWA1 240700Z 07013KT 15/15 A2997 RMK A01 T01510145  RH  096%=      5-min Rain = 0
KWA1 240701Z 07014KT 15/15 A2997 RMK A01 T01510145  RH  096%=      5-min Rain = 0
KWA1 240702Z 07014KT 15/15 A2997 RMK A01 T01510145  RH  096%=      5-min Rain = 0.01
KWA1 240703Z 06013KT 15/14 A2997 RMK A01 T01510144  RH  096%=      5-min Rain = 0
KWA1 240704Z 06013KT 15/14 A2997 RMK A01 T01510144  RH  096%=      5-min Rain = 0
KWA1 240705Z 06013KT 15/15 A2997 RMK A01 T01510145  RH  096%=      5-min Rain = 0
KWA1 240706Z 06013KT 15/15 A2997 RMK A01 T01520145  RH  096%=      5-min Rain = 0
KWA1 240707Z 06013KT 15/15 A2997 RMK A01 T01510145  RH  096%=      5-min Rain = 0
KWA1 240708Z 06013KT 15/15 A2997 RMK A01 T01510145  RH  096%=      5-min Rain = 0
KWA1 240709Z 06013KT 15/15 A2997 RMK A01 T01510145  RH  096%=      5-min Rain = 0
KWA1 240710Z 06013KT 15/15 A2997 RMK A01 T01510145  RH  096%=      5-min Rain = 0
KWA1 240711Z 06013KT 15/14 A2997 RMK A01 T01510144  RH  096%=      5-min Rain = 0
KWA1 240712Z 06012KT 15/14 A2997 RMK A01 T01510144  RH  096%=      5-min Rain = 0
KWA1 240713Z 07013KT 15/15 A2998 RMK A01 T01510145  RH  096%=      5-min Rain = 0
KWA1 240714Z 07012KT 15/14 A2998 RMK A01 T01510144  RH  095%=      5-min Rain = 0
KWA1 240715Z 07012KT 15/14 A2998 RMK A01 T01520144  RH  095%=      5-min Rain = 0
KWA1 240716Z 07012KT 15/14 A2998 RMK A01 T01520144  RH  095%=      5-min Rain = 0
KWA1 240717Z 07010KT 15/14 A2999 RMK A01 T01520144  RH  095%=      5-min Rain = 0
KWA1 240718Z 08008KT 15/14 A2999 RMK A01 T01520144  RH  095%=      5-min Rain = 0.01
KWA1 240719Z 08010KT 15/14 A2999 RMK A01 T01520144  RH  095%=      5-min Rain = 0
KWA1 240720Z 08008KT 15/14 A2999 RMK A01 T01520144  RH  095%=      5-min Rain = 0
KWA1 240721Z 08008KT 15/14 A2999 RMK A01 T01520144  RH  095%=      5-min Rain = 0
KWA1 240722Z 08009KT 15/14 A2998 RMK A01 T01520144  RH  095%=      5-min Rain = 0
KWA1 240723Z 08009KT 15/14 A2998 RMK A01 T01520144  RH  095%=      5-min Rain = 0
KWA1 240724Z 09008KT 15/15 A2998 RMK A01 T01520145  RH  095%=      5-min Rain = 0
KWA1 240725Z 09009KT 15/15 A2998 RMK A01 T01520145  RH  096%=      5-min Rain = 0
KWA1 240726Z 09009KT 15/15 A2998 RMK A01 T01520145  RH  096%=      5-min Rain = 0.01
KWA1 240727Z 09010KT 15/15 A2998 RMK A01 T01520146  RH  096%=      5-min Rain = 0
KWA1 240728Z 09009KT 15/15 A2998 RMK A01 T01520146  RH  096%=      5-min Rain = 0.01
KWA1 240729Z 09009KT 15/15 A2998 RMK A01 T01520147  RH  096%=      5-min Rain = 0.01
KWA1 240730Z 08008KT 15/15 A2998 RMK A01 T01520147  RH  097%=      5-min Rain = 0
KWA1 240731Z 08009KT 15/15 A2997 RMK A01 T01520147  RH  097%=      5-min Rain = 0.01
KWA1 240732Z 08009KT 15/15 A2997 RMK A01 T01520147  RH  097%=      5-min Rain = 0
KWA1 240733Z 07012KT 15/15 A2997 RMK A01 T01520147  RH  097%=      5-min Rain = 0
KWA1 240734Z 07012KT 15/15 A2997 RMK A01 T01520147  RH  097%=      5-min Rain = 0
KWA1 240735Z 07012KT 15/15 A2997 RMK A01 T01520147  RH  097%=      5-min Rain = 0
KWA1 240736Z 07013KT 15/15 A2997 RMK A01 T01520147  RH  097%=      5-min Rain = 0
KWA1 240737Z 07011KT 15/15 A2997 RMK A01 T01520147  RH  097%=      5-min Rain = 0
KWA1 240738Z 07012KT 15/15 A2997 RMK A01 T01520147  RH  097%=      5-min Rain = 0
KWA1 240739Z 07010KT 15/15 A2997 RMK A01 T01520147  RH  097%=      5-min Rain = 0
KWA1 240740Z 07010KT 15/15 A2997 RMK A01 T01520147  RH  097%=      5-min Rain = 0
KWA1 240741Z 08011KT 15/15 A2997 RMK A01 T01520147  RH  097%=      5-min Rain = 0.01
KWA1 240742Z 08012KT 15/15 A2997 RMK A01 T01520147  RH  097%=      5-min Rain = 0
KWA1 240743Z 07011KT 15/15 A2996 RMK A01 T01520147  RH  097%=      5-min Rain = 0
KWA1 240744Z 07012KT 15/15 A2996 RMK A01 T01520147  RH  097%=      5-min Rain = 0
KWA1 240745Z 08013KT 15/15 A2996 RMK A01 T01520147  RH  097%=      5-min Rain = 0
KWA1 240746Z 07013KT 15/15 A2996 RMK A01 T01520147  RH  097%=      5-min Rain = 0
KWA1 240747Z 07013KT 15/15 A2996 RMK A01 T01520147  RH  097%=      5-min Rain = 0
KWA1 240748Z 07013KT 15/15 A2995 RMK A01 T01510147  RH  097%=      5-min Rain = 0
KWA1 240749Z 08013KT 15/15 A2995 RMK A01 T01510147  RH  097%=      5-min Rain = 0
KWA1 240750Z 08011KT 15/15 A2995 RMK A01 T01510147  RH  097%=      5-min Rain = 0
KWA1 240751Z 08013KT 15/15 A2995 RMK A01 T01510147  RH  097%=      5-min Rain = 0.01
KWA1 240752Z 08013KT 15/15 A2995 RMK A01 T01520148  RH  097%=      5-min Rain = 0
KWA1 240753Z 07013KT 15/15 A2995 RMK A01 T01510147  RH  097%=      5-min Rain = 0
KWA1 240754Z 07013KT 15/15 A2994 RMK A01 T01510147  RH  097%=      5-min Rain = 0
KWA1 240755Z 07012KT 15/15 A2994 RMK A01 T01510147  RH  097%=      5-min Rain = 0
KWA1 240756Z 07014KT 15/15 A2994 RMK A01 T01510147  RH  097%=      5-min Rain = 0
KWA1 240757Z 06014KT 15/15 A2994 RMK A01 T01510147  RH  097%=      5-min Rain = 0
KWA1 240758Z 07013KT 15/15 A2994 RMK A01 T01510147  RH  097%=      5-min Rain = 0
KWA1 240759Z 07013KT 15/15 A2994 RMK A01 T01510147  RH  097%=      5-min Rain = 0.01
KWA1 240800Z 06012KT 15/15 A2994 RMK A01 T01510146  RH  097%=      5-min Rain = 0
KWA1 240801Z 06013KT 15/15 A2994 RMK A01 T01510147  RH  097%=      5-min Rain = 0
KWA1 240802Z 06013KT 15/15 A2994 RMK A01 T01510147  RH  097%=      5-min Rain = 0
KWA1 240803Z 06012KT 15/15 A2994 RMK A01 T01500146  RH  097%=      5-min Rain = 0
KWA1 240804Z 06012KT 15/14 A2995 RMK A01 T01500144  RH  096%=      5-min Rain = 0
KWA1 240805Z 06012KT 15/14 A2995 RMK A01 T01500144  RH  096%=      5-min Rain = 0
KWA1 240806Z 06015KT 15/14 A2995 RMK A01 T01510143  RH  095%=      5-min Rain = 0
KWA1 240807Z 06015KT 15/14 A2995 RMK A01 T01510143  RH  095%=      5-min Rain = 0
KWA1 240808Z 06013KT 15/14 A2995 RMK A01 T01520144  RH  095%=      5-min Rain = 0
KWA1 240809Z 06014KT 15/14 A2995 RMK A01 T01520144  RH  095%=      5-min Rain = 0
KWA1 240810Z 06014KT 15/14 A2994 RMK A01 T01520144  RH  095%=      5-min Rain = 0.01
KWA1 240811Z 06014KT 15/15 A2994 RMK A01 T01520145  RH  096%=      5-min Rain = 0
KWA1 240812Z 06014KT 15/15 A2994 RMK A01 T01520145  RH  096%=      5-min Rain = 0
KWA1 240813Z 06013KT 15/14 A2995 RMK A01 T01510144  RH  096%=      5-min Rain = 0
KWA1 240814Z 06014KT 15/14 A2995 RMK A01 T01510144  RH  096%=      5-min Rain = 0
KWA1 240815Z 06012KT 15/14 A2995 RMK A01 T01510144  RH  095%=      5-min Rain = 0
KWA1 240816Z 06012KT 15/14 A2995 RMK A01 T01510144  RH  095%=      5-min Rain = 0
KWA1 240817Z 06012KT 15/14 A2995 RMK A01 T01510144  RH  095%=      5-min Rain = 0
KWA1 240818Z 06010KT 15/14 A2995 RMK A01 T01510144  RH  096%=      5-min Rain = 0.01
KWA1 240819Z 06011KT 15/14 A2995 RMK A01 T01510144  RH  096%=      5-min Rain = 0
KWA1 240820Z 06010KT 15/15 A2996 RMK A01 T01510145  RH  096%=      5-min Rain = 0
KWA1 240821Z 07011KT 15/14 A2996 RMK A01 T01510144  RH  096%=      5-min Rain = 0
KWA1 240822Z 07011KT 15/14 A2996 RMK A01 T01510144  RH  096%=      5-min Rain = 0
KWA1 240823Z 07011KT 15/14 A2996 RMK A01 T01510144  RH  096%=      5-min Rain = 0.01
KWA1 240824Z 08012KT 15/14 A2996 RMK A01 T01510144  RH  096%=      5-min Rain = 0
KWA1 240825Z 08012KT 15/14 A2996 RMK A01 T01510144  RH  096%=      5-min Rain = 0
KWA1 240826Z 08012KT 15/14 A2997 RMK A01 T01510144  RH  096%=      5-min Rain = 0
KWA1 240827Z 08010KT 15/14 A2997 RMK A01 T01510144  RH  096%=      5-min Rain = 0.01
KWA1 240828Z 08010KT 15/15 A2997 RMK A01 T01510145  RH  096%=      5-min Rain = 0
KWA1 240829Z 08010KT 15/15 A2997 RMK A01 T01510145  RH  096%=      5-min Rain = 0
KWA1 240830Z 08010KT 15/15 A2998 RMK A01 T01510145  RH  096%=      5-min Rain = 0
KWA1 240831Z 08010KT 15/15 A2998 RMK A01 T01510145  RH  096%=      5-min Rain = 0.01
KWA1 240832Z 08009KT 15/15 A2998 RMK A01 T01510145  RH  096%=      5-min Rain = 0
KWA1 240833Z 08010KT 15/15 A2997 RMK A01 T01510145  RH  096%=      5-min Rain = 0
KWA1 240834Z 08010KT 15/15 A2997 RMK A01 T01500145  RH  096%=      5-min Rain = 0
KWA1 240835Z 08010KT 15/15 A2997 RMK A01 T01500145  RH  096%=      5-min Rain = 0.01
KWA1 240836Z 08010KT 15/15 A2997 RMK A01 T01500145  RH  096%=      5-min Rain = 0
KWA1 240837Z 08009KT 15/14 A2997 RMK A01 T01500144  RH  096%=      5-min Rain = 0
KWA1 240838Z 08008KT 15/15 A2997 RMK A01 T01500145  RH  096%=      5-min Rain = 0
KWA1 240839Z 08009KT 15/14 A2997 RMK A01 T01500144  RH  096%=      5-min Rain = 0
KWA1 240840Z 08009KT 15/14 A2997 RMK A01 T01500144  RH  096%=      5-min Rain = 0
KWA1 240841Z 08010KT 15/14 A2997 RMK A01 T01500144  RH  096%=      5-min Rain = 0
KWA1 240842Z 08010KT 15/14 A2997 RMK A01 T01500144  RH  096%=      5-min Rain = 0.01
KWA1 240843Z 08009KT 15/14 A2997 RMK A01 T01500143  RH  096%=      5-min Rain = 0
KWA1 240844Z 08011KT 15/14 A2997 RMK A01 T01500143  RH  096%=      5-min Rain = 0
KWA1 240845Z 08011KT 15/14 A2997 RMK A01 T01500143  RH  096%=      5-min Rain = 0
KWA1 240846Z 08011KT 15/14 A2997 RMK A01 T01500143  RH  095%=      5-min Rain = 0
KWA1 240847Z 07011KT 15/14 A2997 RMK A01 T01500142  RH  095%=      5-min Rain = 0.01
KWA1 240848Z 07010KT 15/14 A2997 RMK A01 T01500142  RH  095%=      5-min Rain = 0
KWA1 240849Z 07009KT 15/14 A2997 RMK A01 T01500142  RH  095%=      5-min Rain = 0
KWA1 240850Z 07009KT 15/14 A2997 RMK A01 T01500142  RH  095%=      5-min Rain = 0
KWA1 240851Z 07010KT 15/14 A2997 RMK A01 T01500142  RH  095%=      5-min Rain = 0.01
KWA1 240852Z 07009KT 15/14 A2997 RMK A01 T01500142  RH  095%=      5-min Rain = 0
KWA1 240853Z 08008KT 15/14 A2997 RMK A01 T01500142  RH  095%=      5-min Rain = 0
KWA1 240854Z 08008KT 15/14 A2997 RMK A01 T01500142  RH  095%=      5-min Rain = 0
KWA1 240855Z 09010KT 15/14 A2997 RMK A01 T01500143  RH  095%=      5-min Rain = 0.01
KWA1 240856Z 09010KT 15/14 A2997 RMK A01 T01500143  RH  095%=      5-min Rain = 0
KWA1 240857Z 10010KT 15/14 A2997 RMK A01 T01500143  RH  096%=      5-min Rain = 0
KWA1 240858Z 10010KT 15/14 A2997 RMK A01 T01500143  RH  096%=      5-min Rain = 0
KWA1 240859Z 10010KT 15/14 A2997 RMK A01 T01500143  RH  096%=      5-min Rain = 0.01
KWA1 240900Z 10012KT 15/14 A2997 RMK A01 T01500144  RH  096%=      5-min Rain = 0
KWA1 240901Z 10011KT 15/14 A2996 RMK A01 T01500144  RH  096%=      5-min Rain = 0
KWA1 240902Z 10012KT 15/14 A2996 RMK A01 T01500144  RH  096%=      5-min Rain = 0
KWA1 240903Z 09010KT 15/15 A2996 RMK A01 T01500145  RH  097%=      5-min Rain = 0
KWA1 240904Z 09013KT 15/15 A2996 RMK A01 T01500145  RH  097%=      5-min Rain = 0.01
KWA1 240905Z 09014KT 15/14 A2996 RMK A01 T01500144  RH  097%=      5-min Rain = 0
KWA1 240906Z 10014KT 15/14 A2996 RMK A01 T01500144  RH  096%=      5-min Rain = 0
KWA1 240907Z 10014KT 15/14 A2996 RMK A01 T01490144  RH  096%=      5-min Rain = 0
KWA1 240908Z 10011KT 15/14 A2996 RMK A01 T01490144  RH  096%=      5-min Rain = 0
KWA1 240909Z 10012KT 15/14 A2997 RMK A01 T01500144  RH  096%=      5-min Rain = 0.01
KWA1 240910Z 10013KT 15/14 A2996 RMK A01 T01500144  RH  097%=      5-min Rain = 0
KWA1 240911Z 10013KT 15/14 A2996 RMK A01 T01490144  RH  097%=      5-min Rain = 0
KWA1 240912Z 09014KT 15/14 A2996 RMK A01 T01490144  RH  097%=      5-min Rain = 0
KWA1 240913Z 09015KT 15/14 A2996 RMK A01 T01490144  RH  097%=      5-min Rain = 0.01
KWA1 240914Z 09014KT 15/14 A2996 RMK A01 T01490144  RH  097%=      5-min Rain = 0
KWA1 240915Z 09016KT 15/14 A2997 RMK A01 T01500144  RH  097%=      5-min Rain = 0.01
KWA1 240916Z 09014KT 15/14 A2997 RMK A01 T01490144  RH  096%=      5-min Rain = 0
KWA1 240917Z 09014KT 15/14 A2997 RMK A01 T01490144  RH  096%=      5-min Rain = 0
KWA1 240918Z 09016KT 15/14 A2997 RMK A01 T01500144  RH  096%=      5-min Rain = 0.01
KWA1 240919Z 09016KT 15/14 A2997 RMK A01 T01490143  RH  096%=      5-min Rain = 0
KWA1 240920Z 09014KT 15/14 A2997 RMK A01 T01490143  RH  096%=      5-min Rain = 0
KWA1 240921Z 08011KT 15/14 A2997 RMK A01 T01500143  RH  096%=      5-min Rain = 0.01
KWA1 240922Z 08010KT 15/14 A2997 RMK A01 T01490143  RH  096%=      5-min Rain = 0
KWA1 240923Z 08011KT 15/14 A2997 RMK A01 T01500143  RH  096%=      5-min Rain = 0
KWA1 240924Z 08013KT 15/14 A2996 RMK A01 T01490143  RH  096%=      5-min Rain = 0
KWA1 240925Z 07013KT 15/14 A2996 RMK A01 T01500143  RH  096%=      5-min Rain = 0.01
KWA1 240926Z 06013KT 15/14 A2996 RMK A01 T01490142  RH  095%=      5-min Rain = 0
KWA1 240927Z 06012KT 15/14 A2996 RMK A01 T01490142  RH  095%=      5-min Rain = 0.01
KWA1 240928Z 07015KT 15/14 A2995 RMK A01 T01490141  RH  095%=      5-min Rain = 0
KWA1 240929Z 06012KT 15/14 A2995 RMK A01 T01490141  RH  095%=      5-min Rain = 0
KWA1 240930Z 06013KT 15/14 A2995 RMK A01 T01500142  RH  095%=      5-min Rain = 0.01
KWA1 240931Z 06013KT 15/14 A2995 RMK A01 T01500142  RH  095%=      5-min Rain = 0
KWA1 240932Z 07012KT 15/14 A2995 RMK A01 T01500142  RH  095%=      5-min Rain = 0.01
KWA1 240933Z 07014KT 15/14 A2996 RMK A01 T01490143  RH  096%=      5-min Rain = 0
KWA1 240934Z 07012KT 15/14 A2995 RMK A01 T01490142  RH  096%=      5-min Rain = 0.01
KWA1 240935Z 07011KT 15/14 A2995 RMK A01 T01490143  RH  096%=      5-min Rain = 0
KWA1 240936Z 07012KT 15/14 A2995 RMK A01 T01490143  RH  096%=      5-min Rain = 0.01
KWA1 240937Z 07012KT 15/14 A2995 RMK A01 T01490143  RH  096%=      5-min Rain = 0
KWA1 240938Z 07014KT 15/14 A2995 RMK A01 T01490143  RH  096%=      5-min Rain = 0.01
KWA1 240939Z 07014KT 15/14 A2995 RMK A01 T01490143  RH  096%=      5-min Rain = 0
KWA1 240940Z 07011KT 15/14 A2995 RMK A01 T01480142  RH  096%=      5-min Rain = 0.01
KWA1 240941Z 07011KT 15/14 A2995 RMK A01 T01480143  RH  097%=      5-min Rain = 0
KWA1 240942Z 07012KT 15/14 A2995 RMK A01 T01480143  RH  097%=      5-min Rain = 0
KWA1 240943Z 07013KT 15/14 A2996 RMK A01 T01480143  RH  097%=      5-min Rain = 0.01
KWA1 240944Z 08014KT 15/14 A2996 RMK A01 T01480143  RH  097%=      5-min Rain = 0
KWA1 240945Z 07013KT 15/14 A2996 RMK A01 T01480143  RH  097%=      5-min Rain = 0
KWA1 240946Z 07011KT 15/14 A2996 RMK A01 T01480143  RH  097%=      5-min Rain = 0.01
KWA1 240947Z 07012KT 15/14 A2996 RMK A01 T01480143  RH  097%=      5-min Rain = 0
KWA1 240948Z 07012KT 15/14 A2996 RMK A01 T01480144  RH  097%=      5-min Rain = 0
KWA1 240949Z 07012KT 15/14 A2996 RMK A01 T01480144  RH  097%=      5-min Rain = 0.01
KWA1 240950Z 07013KT 15/14 A2996 RMK A01 T01480144  RH  097%=      5-min Rain = 0
KWA1 240951Z 07012KT 15/14 A2996 RMK A01 T01490144  RH  097%=      5-min Rain = 0.01
KWA1 240952Z 08013KT 15/14 A2996 RMK A01 T01480144  RH  097%=      5-min Rain = 0
KWA1 240953Z 08013KT 15/14 A2997 RMK A01 T01480144  RH  097%=      5-min Rain = 0.01
KWA1 240954Z 08013KT 15/14 A2997 RMK A01 T01490144  RH  097%=      5-min Rain = 0.01
KWA1 240955Z 08012KT 15/14 A2997 RMK A01 T01490144  RH  097%=      5-min Rain = 0
KWA1 240956Z 07011KT 15/14 A2997 RMK A01 T01490144  RH  097%=      5-min Rain = 0.01
KWA1 240957Z 07012KT 15/14 A2997 RMK A01 T01490144  RH  097%=      5-min Rain = 0
KWA1 240958Z 07013KT 15/14 A2996 RMK A01 T01490144  RH  097%=      5-min Rain = 0.01
KWA1 240959Z 07013KT 15/14 A2996 RMK A01 T01490144  RH  097%=      5-min Rain = 0
KWA1 241000Z 06012KT 15/14 A2996 RMK A01 T01490144  RH  097%=      5-min Rain = 0.01
KWA1 241001Z 07014KT 15/14 A2996 RMK A01 T01490144  RH  097%=      5-min Rain = 0
KWA1 241002Z 07014KT 15/14 A2996 RMK A01 T01480144  RH  097%=      5-min Rain = 0.01
KWA1 241003Z 07015KT 15/14 A2995 RMK A01 T01480144  RH  097%=      5-min Rain = 0.01
KWA1 241004Z 07017KT 15/14 A2995 RMK A01 T01480143  RH  097%=      5-min Rain = 0
KWA1 241005Z 08016KT 15/14 A2995 RMK A01 T01480143  RH  097%=      5-min Rain = 0.01
KWA1 241006Z 07021KT 15/14 A2995 RMK A01 T01480143  RH  097%=      5-min Rain = 0
KWA1 241007Z 07020KT 15/14 A2995 RMK A01 T01470143  RH  097%=      5-min Rain = 0.01
KWA1 241008Z 07016KT 15/14 A2995 RMK A01 T01480143  RH  097%=      5-min Rain = 0.01
KWA1 241009Z 07019KT 15/14 A2995 RMK A01 T01480143  RH  097%=      5-min Rain = 0.01
KWA1 241010Z 07017KT 15/14 A2995 RMK A01 T01470143  RH  097%=      5-min Rain = 0
KWA1 241011Z 07018KT 15/14 A2995 RMK A01 T01470143  RH  097%=      5-min Rain = 0.01
KWA1 241012Z 07017KT 15/14 A2995 RMK A01 T01470143  RH  097%=      5-min Rain = 0
KWA1 241013Z 07015KT 15/14 A2995 RMK A01 T01470142  RH  097%=      5-min Rain = 0.01
KWA1 241014Z 08015KT 15/14 A2995 RMK A01 T01470142  RH  097%=      5-min Rain = 0.01
KWA1 241015Z 08015KT 15/14 A2995 RMK A01 T01470142  RH  097%=      5-min Rain = 0
KWA1 241016Z 08014KT 15/14 A2995 RMK A01 T01470142  RH  097%=      5-min Rain = 0.01
KWA1 241017Z 08014KT 15/14 A2994 RMK A01 T01470142  RH  097%=      5-min Rain = 0.01
KWA1 241018Z 08013KT 15/14 A2994 RMK A01 T01470142  RH  097%=      5-min Rain = 0.01
KWA1 241019Z 08014KT 15/14 A2994 RMK A01 T01470142  RH  097%=      5-min Rain = 0
KWA1 241020Z 08013KT 15/14 A2993 RMK A01 T01460142  RH  097%=      5-min Rain = 0.01
KWA1 241021Z 07013KT 15/14 A2993 RMK A01 T01460142  RH  097%=      5-min Rain = 0.01
KWA1 241022Z 08012KT 15/14 A2993 RMK A01 T01460141  RH  097%=      5-min Rain = 0
KWA1 241023Z 08013KT 15/14 A2994 RMK A01 T01460141  RH  097%=      5-min Rain = 0.01
KWA1 241024Z 08013KT 15/14 A2994 RMK A01 T01460141  RH  097%=      5-min Rain = 0
KWA1 241025Z 09013KT 15/14 A2995 RMK A01 T01460141  RH  097%=      5-min Rain = 0.01
KWA1 241026Z 09013KT 15/14 A2995 RMK A01 T01460141  RH  097%=      5-min Rain = 0
KWA1 241027Z 09011KT 15/14 A2995 RMK A01 T01460141  RH  097%=      5-min Rain = 0
KWA1 241028Z 10012KT 15/14 A2995 RMK A01 T01460141  RH  097%=      5-min Rain = 0.01
KWA1 241029Z 09012KT 15/14 A2994 RMK A01 T01460141  RH  097%=      5-min Rain = 0
KWA1 241030Z 08012KT 15/14 A2994 RMK A01 T01460142  RH  097%=      5-min Rain = 0.01
KWA1 241031Z 08011KT 15/14 A2993 RMK A01 T01460142  RH  097%=      5-min Rain = 0
KWA1 241032Z 07014KT 15/14 A2993 RMK A01 T01460142  RH  097%=      5-min Rain = 0
KWA1 241033Z 07016KT 15/14 A2992 RMK A01 T01460141  RH  097%=      5-min Rain = 0.01
KWA1 241034Z 07017KT 15/14 A2991 RMK A01 T01460141  RH  097%=      5-min Rain = 0.01
KWA1 241035Z 08017KT 15/14 A2991 RMK A01 T01460141  RH  097%=      5-min Rain = 0
KWA1 241036Z 08017KT 15/14 A2991 RMK A01 T01460141  RH  097%=      5-min Rain = 0.01
KWA1 241037Z 08017KT 15/14 A2991 RMK A01 T01460141  RH  097%=      5-min Rain = 0
KWA1 241038Z 08017KT 15/14 A2991 RMK A01 T01460141  RH  097%=      5-min Rain = 0
KWA1 241039Z 08017KT 15/14 A2991 RMK A01 T01460141  RH  097%=      5-min Rain = 0.01
KWA1 241040Z 08016KT 15/14 A299 RMK A01 T01460141  RH  097%=      5-min Rain = 0
KWA1 241041Z 09017KT 15/14 A299 RMK A01 T01460141  RH  097%=      5-min Rain = 0
KWA1 241042Z 08014KT 15/14 A2991 RMK A01 T01460141  RH  097%=      5-min Rain = 0
KWA1 241043Z 08014KT 15/14 A2991 RMK A01 T01470142  RH  097%=      5-min Rain = 0
KWA1 241044Z 08015KT 15/14 A2991 RMK A01 T01460141  RH  097%=      5-min Rain = 0
KWA1 241045Z 09014KT 15/14 A2991 RMK A01 T01460141  RH  097%=      5-min Rain = 0
KWA1 241046Z 09015KT 15/14 A2991 RMK A01 T01460141  RH  097%=      5-min Rain = 0
KWA1 241047Z 09014KT 15/14 A2991 RMK A01 T01460141  RH  097%=      5-min Rain = 0
KWA1 241048Z 09014KT 15/14 A2991 RMK A01 T01470141  RH  097%=      5-min Rain = 0
KWA1 241049Z 10013KT 15/14 A2992 RMK A01 T01470141  RH  097%=      5-min Rain = 0
KWA1 241050Z 10014KT 15/14 A2992 RMK A01 T01470142  RH  097%=      5-min Rain = 0
KWA1 241051Z 11012KT 15/14 A2993 RMK A01 T01470142  RH  097%=      5-min Rain = 0
KWA1 241052Z 11014KT 15/14 A2993 RMK A01 T01470142  RH  097%=      5-min Rain = 0
KWA1 241053Z 11014KT 15/14 A2993 RMK A01 T01470143  RH  097%=      5-min Rain = 0
KWA1 241054Z 11014KT 15/14 A2993 RMK A01 T01470143  RH  097%=      5-min Rain = 0
KWA1 241055Z 11017KT 15/14 A2992 RMK A01 T01470143  RH  097%=      5-min Rain = 0
KWA1 241056Z 11015KT 15/14 A2992 RMK A01 T01470142  RH  097%=      5-min Rain = 0
KWA1 241057Z 11016KT 15/14 A2992 RMK A01 T01470142  RH  097%=      5-min Rain = 0
KWA1 241058Z 10016KT 15/14 A2991 RMK A01 T01470142  RH  097%=      5-min Rain = 0
KWA1 241059Z 10016KT 15/14 A2991 RMK A01 T01480142  RH  097%=      5-min Rain = 0
KWA1 241100Z 10015KT 15/14 A299 RMK A01 T01480142  RH  097%=      5-min Rain = 0
KWA1 241101Z 09016KT 15/14 A299 RMK A01 T01480142  RH  097%=      5-min Rain = 0
KWA1 241102Z 09018KT 15/14 A2991 RMK A01 T01480142  RH  097%=      5-min Rain = 0
KWA1 241103Z 09016KT 15/14 A2991 RMK A01 T01480142  RH  096%=      5-min Rain = 0
KWA1 241104Z 10014KT 15/14 A2991 RMK A01 T01480142  RH  096%=      5-min Rain = 0
KWA1 241105Z 10014KT 15/14 A2991 RMK A01 T01480142  RH  096%=      5-min Rain = 0
KWA1 241106Z 11014KT 15/14 A2992 RMK A01 T01480142  RH  096%=      5-min Rain = 0
KWA1 241107Z 10012KT 15/14 A2992 RMK A01 T01480142  RH  096%=      5-min Rain = 0
KWA1 241108Z 10012KT 15/14 A2993 RMK A01 T01480141  RH  096%=      5-min Rain = 0
KWA1 241109Z 10015KT 15/14 A2993 RMK A01 T01480142  RH  096%=      5-min Rain = 0
KWA1 241110Z 10015KT 15/14 A2993 RMK A01 T01480141  RH  095%=      5-min Rain = 0
KWA1 241111Z 10013KT 15/14 A2993 RMK A01 T01480141  RH  095%=      5-min Rain = 0
KWA1 241112Z 10013KT 15/14 A2993 RMK A01 T01490141  RH  095%=      5-min Rain = 0
KWA1 241113Z 11011KT 15/14 A2993 RMK A01 T01480141  RH  095%=      5-min Rain = 0
KWA1 241114Z 11011KT 15/14 A2993 RMK A01 T01490141  RH  095%=      5-min Rain = 0
KWA1 241115Z 11011KT 15/14 A2993 RMK A01 T01490141  RH  095%=      5-min Rain = 0
KWA1 241116Z 11011KT 15/14 A2993 RMK A01 T01490141  RH  095%=      5-min Rain = 0.01
KWA1 241117Z 11011KT 15/14 A2993 RMK A01 T01490141  RH  095%=      5-min Rain = 0
KWA1 241118Z 11010KT 15/14 A2993 RMK A01 T01490141  RH  095%=      5-min Rain = 0
KWA1 241119Z 11010KT 15/14 A2994 RMK A01 T01490141  RH  095%=      5-min Rain = 0
KWA1 241120Z 11010KT 15/14 A2994 RMK A01 T01490140  RH  095%=      5-min Rain = 0
KWA1 241121Z 12010KT 15/14 A2994 RMK A01 T01490140  RH  095%=      5-min Rain = 0
KWA1 241122Z 12012KT 15/14 A2995 RMK A01 T01490140  RH  094%=      5-min Rain = 0
KWA1 241123Z 12013KT 15/14 A2995 RMK A01 T01490140  RH  094%=      5-min Rain = 0
KWA1 241124Z 12014KT 15/14 A2995 RMK A01 T01490140  RH  094%=      5-min Rain = 0
KWA1 241125Z 13013KT 15/14 A2995 RMK A01 T01490139  RH  094%=      5-min Rain = 0
KWA1 241126Z 13012KT 15/14 A2995 RMK A01 T01500140  RH  094%=      5-min Rain = 0
KWA1 241127Z 12011KT 15/14 A2995 RMK A01 T01500140  RH  094%=      5-min Rain = 0
KWA1 241128Z 12010KT 15/14 A2994 RMK A01 T01500140  RH  094%=      5-min Rain = 0
KWA1 241129Z 11011KT 15/14 A2994 RMK A01 T01500139  RH  094%=      5-min Rain = 0
KWA1 241130Z 11010KT 15/14 A2993 RMK A01 T01500138  RH  093%=      5-min Rain = 0
KWA1 241131Z 10011KT 15/14 A2993 RMK A01 T01490138  RH  093%=      5-min Rain = 0
KWA1 241132Z 10011KT 15/14 A2993 RMK A01 T01500138  RH  093%=      5-min Rain = 0
KWA1 241133Z 11011KT 15/14 A2993 RMK A01 T01500138  RH  093%=      5-min Rain = 0
KWA1 241134Z 11012KT 15/14 A2993 RMK A01 T01500138  RH  093%=      5-min Rain = 0.01
KWA1 241135Z 11012KT 15/14 A2993 RMK A01 T01500138  RH  093%=      5-min Rain = 0
KWA1 241136Z 11012KT 15/14 A2993 RMK A01 T01500139  RH  093%=      5-min Rain = 0
KWA1 241137Z 11012KT 15/14 A2993 RMK A01 T01500139  RH  093%=      5-min Rain = 0
KWA1 241138Z 11012KT 15/14 A2993 RMK A01 T01490139  RH  093%=      5-min Rain = 0
KWA1 241139Z 11011KT 15/14 A2993 RMK A01 T01490138  RH  093%=      5-min Rain = 0
KWA1 241140Z 11011KT 15/14 A2993 RMK A01 T01500139  RH  093%=      5-min Rain = 0
KWA1 241141Z 11011KT 15/14 A2992 RMK A01 T01490139  RH  094%=      5-min Rain = 0
KWA1 241142Z 10013KT 15/14 A2992 RMK A01 T01490139  RH  094%=      5-min Rain = 0
KWA1 241143Z 10014KT 15/14 A2992 RMK A01 T01490139  RH  094%=      5-min Rain = 0
KWA1 241144Z 10013KT 15/14 A2991 RMK A01 T01490139  RH  094%=      5-min Rain = 0
KWA1 241145Z 10015KT 15/14 A2991 RMK A01 T01490139  RH  094%=      5-min Rain = 0
KWA1 241146Z 10016KT 15/14 A2991 RMK A01 T01480139  RH  094%=      5-min Rain = 0
KWA1 241147Z 09015KT 15/14 A299 RMK A01 T01480139  RH  094%=      5-min Rain = 0
KWA1 241148Z 09016KT 15/14 A299 RMK A01 T01480139  RH  094%=      5-min Rain = 0
KWA1 241149Z 09016KT 15/14 A299 RMK A01 T01480139  RH  094%=      5-min Rain = 0
KWA1 241150Z 09015KT 15/14 A2989 RMK A01 T01480140  RH  094%=      5-min Rain = 0
KWA1 241151Z 09017KT 15/14 A2989 RMK A01 T01480139  RH  095%=      5-min Rain = 0
KWA1 241152Z 09016KT 15/14 A2989 RMK A01 T01480139  RH  095%=      5-min Rain = 0
KWA1 241153Z 09016KT 15/14 A2989 RMK A01 T01480139  RH  095%=      5-min Rain = 0
KWA1 241154Z 09018KT 15/14 A2989 RMK A01 T01480140  RH  095%=      5-min Rain = 0
KWA1 241155Z 09017KT 15/14 A2988 RMK A01 T01480139  RH  095%=      5-min Rain = 0
KWA1 241156Z 09017KT 15/14 A2988 RMK A01 T01480139  RH  095%=      5-min Rain = 0
KWA1 241157Z 10016KT 15/14 A2988 RMK A01 T01470139  RH  095%=      5-min Rain = 0
KWA1 241158Z 10016KT 15/14 A2989 RMK A01 T01470139  RH  095%=      5-min Rain = 0
KWA1 241159Z 10016G21KT 15/14 A2989 RMK A01 T01470139  RH  095%=      5-min Rain = 0
KWA1 241200Z 10015KT 15/14 A2989 RMK A01 T01470139  RH  095%=      5-min Rain = 0
KWA1 241201Z 11013KT 15/14 A299 RMK A01 T01470140  RH  095%=      5-min Rain = 0
KWA1 241202Z 11014KT 15/14 A2991 RMK A01 T01470139  RH  095%=      5-min Rain = 0
KWA1 241203Z 12013KT 15/14 A2991 RMK A01 T01470139  RH  095%=      5-min Rain = 0
KWA1 241204Z 13015KT 15/14 A2992 RMK A01 T01470139  RH  095%=      5-min Rain = 0
KWA1 241205Z 14013KT 15/14 A2993 RMK A01 T01470140  RH  096%=      5-min Rain = 0
KWA1 241206Z 14014KT 15/14 A2994 RMK A01 T01470140  RH  096%=      5-min Rain = 0
KWA1 241207Z 15015KT 15/14 A2995 RMK A01 T01470140  RH  096%=      5-min Rain = 0
KWA1 241208Z 16016KT 15/14 A2996 RMK A01 T01470140  RH  096%=      5-min Rain = 0
KWA1 241209Z 16018KT 15/14 A2996 RMK A01 T01470140  RH  096%=      5-min Rain = 0
KWA1 241210Z 16019KT 15/14 A2996 RMK A01 T01470140  RH  096%=      5-min Rain = 0
KWA1 241211Z 16018KT 15/14 A2996 RMK A01 T01470140  RH  095%=      5-min Rain = 0
KWA1 241212Z 15019KT 15/14 A2996 RMK A01 T01470140  RH  095%=      5-min Rain = 0
KWA1 241213Z 15017KT 15/14 A2995 RMK A01 T01470140  RH  095%=      5-min Rain = 0.01
KWA1 241214Z 14017KT 15/14 A2994 RMK A01 T01470140  RH  096%=      5-min Rain = 0.01
KWA1 241215Z 14016KT 15/14 A2994 RMK A01 T01470140  RH  096%=      5-min Rain = 0.01
KWA1 241216Z 13016KT 15/14 A2993 RMK A01 T01460140  RH  096%=      5-min Rain = 0.01
KWA1 241217Z 12018KT 15/14 A2992 RMK A01 T01460139  RH  096%=      5-min Rain = 0.01
KWA1 241218Z 12017KT 15/14 A2992 RMK A01 T01460139  RH  096%=      5-min Rain = 0.01
KWA1 241219Z 12016KT 15/14 A2992 RMK A01 T01460140  RH  096%=      5-min Rain = 0
KWA1 241220Z 11015KT 15/14 A2991 RMK A01 T01460139  RH  096%=      5-min Rain = 0.01
KWA1 241221Z 11015KT 15/14 A2991 RMK A01 T01460139  RH  096%=      5-min Rain = 0
KWA1 241222Z 11014KT 15/14 A2991 RMK A01 T01450139  RH  096%=      5-min Rain = 0
KWA1 241223Z 11017KT 15/14 A2991 RMK A01 T01450139  RH  096%=      5-min Rain = 0.01
KWA1 241224Z 11015KT 15/14 A2991 RMK A01 T01450138  RH  096%=      5-min Rain = 0
KWA1 241225Z 11015KT 15/14 A299 RMK A01 T01450138  RH  095%=      5-min Rain = 0
KWA1 241226Z 11013KT 15/14 A299 RMK A01 T01450137  RH  095%=      5-min Rain = 0
KWA1 241227Z 10013KT 15/14 A299 RMK A01 T01450138  RH  095%=      5-min Rain = 0.01
KWA1 241228Z 11014KT 14/14 A299 RMK A01 T01440137  RH  096%=      5-min Rain = 0
KWA1 241229Z 12016KT 14/14 A299 RMK A01 T01440137  RH  096%=      5-min Rain = 0
KWA1 241230Z 12016KT 14/14 A299 RMK A01 T01440137  RH  095%=      5-min Rain = 0
KWA1 241231Z 12018KT 14/14 A299 RMK A01 T01440137  RH  095%=      5-min Rain = 0
KWA1 241232Z 12016KT 14/14 A299 RMK A01 T01440137  RH  096%=      5-min Rain = 0
KWA1 241233Z 12016KT 14/14 A299 RMK A01 T01440138  RH  096%=      5-min Rain = 0
KWA1 241234Z 12017KT 14/14 A299 RMK A01 T01440138  RH  096%=      5-min Rain = 0
KWA1 241235Z 11017KT 14/14 A299 RMK A01 T01440138  RH  096%=      5-min Rain = 0
KWA1 241236Z 12013KT 14/14 A2989 RMK A01 T01440137  RH  096%=      5-min Rain = 0
KWA1 241237Z 11013KT 14/14 A2989 RMK A01 T01440137  RH  096%=      5-min Rain = 0
KWA1 241238Z 11014KT 14/14 A2989 RMK A01 T01440137  RH  096%=      5-min Rain = 0
KWA1 241239Z 11016KT 14/14 A2989 RMK A01 T01430137  RH  096%=      5-min Rain = 0
KWA1 241240Z 12015KT 14/14 A2989 RMK A01 T01440137  RH  096%=      5-min Rain = 0
KWA1 241241Z 12014KT 14/14 A2989 RMK A01 T01430137  RH  096%=      5-min Rain = 0
KWA1 241242Z 12015KT 14/14 A2989 RMK A01 T01440137  RH  096%=      5-min Rain = 0
KWA1 241243Z 12016KT 14/14 A2989 RMK A01 T01430137  RH  096%=      5-min Rain = 0
KWA1 241244Z 11014KT 14/14 A2989 RMK A01 T01440137  RH  096%=      5-min Rain = 0
KWA1 241245Z 11012KT 14/14 A2989 RMK A01 T01440137  RH  096%=      5-min Rain = 0
KWA1 241246Z 11011KT 14/14 A2989 RMK A01 T01430137  RH  096%=      5-min Rain = 0
KWA1 241247Z 11013KT 14/14 A2989 RMK A01 T01430137  RH  096%=      5-min Rain = 0
KWA1 241248Z 11011KT 14/14 A2988 RMK A01 T01440137  RH  096%=      5-min Rain = 0
KWA1 241249Z 10012KT 14/14 A2988 RMK A01 T01440136  RH  095%=      5-min Rain = 0
KWA1 241250Z 10013KT 14/14 A2988 RMK A01 T01440136  RH  095%=      5-min Rain = 0
KWA1 241251Z 11014KT 14/14 A2988 RMK A01 T01440136  RH  095%=      5-min Rain = 0
KWA1 241252Z 11012KT 14/14 A2988 RMK A01 T01440136  RH  095%=      5-min Rain = 0
KWA1 241253Z 11011KT 14/14 A2988 RMK A01 T01440136  RH  095%=      5-min Rain = 0
KWA1 241254Z 11011KT 14/14 A2988 RMK A01 T01440136  RH  095%=      5-min Rain = 0
KWA1 241255Z 11012KT 15/14 A2988 RMK A01 T01450136  RH  095%=      5-min Rain = 0
KWA1 241256Z 11011KT 14/14 A2988 RMK A01 T01440136  RH  095%=      5-min Rain = 0
KWA1 241257Z 11011KT 14/14 A2988 RMK A01 T01440136  RH  095%=      5-min Rain = 0
KWA1 241258Z 11011KT 15/14 A2988 RMK A01 T01450136  RH  095%=      5-min Rain = 0
KWA1 241259Z 11011KT 14/14 A2988 RMK A01 T01440136  RH  095%=      5-min Rain = 0
KWA1 241300Z 10010KT 15/14 A2987 RMK A01 T01450136  RH  095%=      5-min Rain = 0
KWA1 241301Z 10010KT 14/14 A2987 RMK A01 T01440136  RH  094%=      5-min Rain = 0
KWA1 241302Z 11008KT 14/14 A2987 RMK A01 T01440136  RH  095%=      5-min Rain = 0
KWA1 241303Z 11009KT 15/14 A2987 RMK A01 T01450136  RH  095%=      5-min Rain = 0
KWA1 241304Z 11011KT 14/14 A2987 RMK A01 T01440136  RH  095%=      5-min Rain = 0
KWA1 241305Z 11009KT 14/14 A2987 RMK A01 T01440136  RH  095%=      5-min Rain = 0
KWA1 241306Z 10009KT 15/14 A2987 RMK A01 T01450136  RH  095%=      5-min Rain = 0
KWA1 241307Z 10009KT 14/14 A2987 RMK A01 T01440136  RH  095%=      5-min Rain = 0
KWA1 241308Z 10009KT 15/14 A2987 RMK A01 T01450136  RH  095%=      5-min Rain = 0
KWA1 241309Z 10008KT 15/14 A2987 RMK A01 T01450137  RH  095%=      5-min Rain = 0
KWA1 241310Z 10010KT 14/14 A2987 RMK A01 T01440136  RH  095%=      5-min Rain = 0
KWA1 241311Z 10010KT 14/14 A2986 RMK A01 T01440136  RH  095%=      5-min Rain = 0
KWA1 241312Z 09009KT 14/14 A2986 RMK A01 T01440136  RH  095%=      5-min Rain = 0
KWA1 241313Z 09011KT 15/14 A2985 RMK A01 T01450136  RH  095%=      5-min Rain = 0
KWA1 241314Z 09009KT 14/14 A2985 RMK A01 T01440136  RH  094%=      5-min Rain = 0
KWA1 241315Z 09010KT 14/14 A2985 RMK A01 T01440136  RH  094%=      5-min Rain = 0
KWA1 241316Z 08009KT 14/14 A2985 RMK A01 T01440136  RH  094%=      5-min Rain = 0
KWA1 241317Z 08010KT 15/14 A2985 RMK A01 T01450136  RH  094%=      5-min Rain = 0
KWA1 241318Z 08009KT 14/14 A2985 RMK A01 T01440136  RH  095%=      5-min Rain = 0
KWA1 241319Z 07008KT 14/14 A2985 RMK A01 T01440136  RH  095%=      5-min Rain = 0
KWA1 241320Z 07009KT 14/14 A2985 RMK A01 T01440136  RH  095%=      5-min Rain = 0
KWA1 241321Z 07009KT 15/14 A2985 RMK A01 T01450136  RH  095%=      5-min Rain = 0
KWA1 241322Z 07010KT 14/14 A2984 RMK A01 T01440136  RH  095%=      5-min Rain = 0
KWA1 241323Z 07009KT 14/14 A2984 RMK A01 T01440136  RH  095%=      5-min Rain = 0
KWA1 241324Z 07010KT 14/14 A2984 RMK A01 T01440136  RH  095%=      5-min Rain = 0
KWA1 241325Z 06011KT 14/14 A2984 RMK A01 T01440136  RH  095%=      5-min Rain = 0
KWA1 241326Z 07010KT 14/14 A2985 RMK A01 T01440136  RH  095%=      5-min Rain = 0
KWA1 241327Z 08007KT 14/14 A2985 RMK A01 T01440136  RH  095%=      5-min Rain = 0.01
KWA1 241328Z 08007KT 14/14 A2986 RMK A01 T01440137  RH  095%=      5-min Rain = 0
KWA1 241329Z 13004KT 14/14 A2988 RMK A01 T01440136  RH  095%=      5-min Rain = 0
KWA1 241330Z 19007KT 14/14 A299 RMK A01 T01440137  RH  095%=      5-min Rain = 0
KWA1 241331Z 21012KT 14/14 A2993 RMK A01 T01440137  RH  095%=      5-min Rain = 0
KWA1 241332Z 22017KT 15/14 A2996 RMK A01 T01450138  RH  095%=      5-min Rain = 0
KWA1 241333Z 22020KT 15/14 A2997 RMK A01 T01450138  RH  095%=      5-min Rain = 0
KWA1 241334Z 22018KT 15/14 A2998 RMK A01 T01460138  RH  095%=      5-min Rain = 0.01
KWA1 241335Z 22016KT 15/14 A2998 RMK A01 T01460138  RH  095%=      5-min Rain = 0.01
KWA1 241336Z 21011KT 15/14 A2997 RMK A01 T01460138  RH  095%=      5-min Rain = 0.01
KWA1 241337Z 22008KT 15/14 A2996 RMK A01 T01450138  RH  095%=      5-min Rain = 0.04
KWA1 241338Z 19007KT 14/14 A2995 RMK A01 T01440137  RH  095%=      5-min Rain = 0.11
KWA1 241339Z 17006KT 14/14 A2994 RMK A01 T01430136  RH  095%=      5-min Rain = 0.06
KWA1 241340Z 18007KT 14/14 A2994 RMK A01 T01410135  RH  096%=      5-min Rain = 0.01
KWA1 241341Z 19010KT 14/14 A2995 RMK A01 T01400135  RH  096%=      5-min Rain = 0.01
KWA1 241342Z 19012KT 14/13 A2995 RMK A01 T01390134  RH  096%=      5-min Rain = 0
KWA1 241343Z 20011KT 14/13 A2995 RMK A01 T01390134  RH  097%=      5-min Rain = 0.01
KWA1 241344Z 19007KT 14/13 A2994 RMK A01 T01390134  RH  097%=      5-min Rain = 0
KWA1 241345Z 20003KT 14/13 A2994 RMK A01 T01390134  RH  097%=      5-min Rain = 0
KWA1 241346Z 19001KT 14/13 A2993 RMK A01 T01390134  RH  097%=      5-min Rain = 0
KWA1 241347Z 17001KT 14/13 A2993 RMK A01 T01390134  RH  097%=      5-min Rain = 0
KWA1 241348Z 22001KT 14/14 A2992 RMK A01 T01390135  RH  097%=      5-min Rain = 0
KWA1 241349Z 14002KT 14/14 A2992 RMK A01 T01400135  RH  097%=      5-min Rain = 0
KWA1 241350Z 13003KT 14/14 A2992 RMK A01 T01390135  RH  097%=      5-min Rain = 0
KWA1 241351Z 13003KT 14/13 A2992 RMK A01 T01400134  RH  097%=      5-min Rain = 0
KWA1 241352Z 12003KT 14/14 A2992 RMK A01 T01400135  RH  097%=      5-min Rain = 0
KWA1 241353Z 11004KT 14/14 A2992 RMK A01 T01410136  RH  097%=      5-min Rain = 0
KWA1 241354Z 11004KT 14/14 A2993 RMK A01 T01410136  RH  096%=      5-min Rain = 0
KWA1 241355Z 12004KT 14/14 A2993 RMK A01 T01420136  RH  096%=      5-min Rain = 0
KWA1 241356Z 12003KT 14/14 A2993 RMK A01 T01420136  RH  096%=      5-min Rain = 0
KWA1 241357Z 12003KT 14/14 A2993 RMK A01 T01430136  RH  096%=      5-min Rain = 0
KWA1 241358Z 13003KT 14/14 A2993 RMK A01 T01430136  RH  096%=      5-min Rain = 0
KWA1 241359Z 13004KT 14/14 A2993 RMK A01 T01430136  RH  095%=      5-min Rain = 0
KWA1 241400Z 13003KT 14/14 A2993 RMK A01 T01440137  RH  096%=      5-min Rain = 0
KWA1 241401Z 12004KT 15/14 A2993 RMK A01 T01450138  RH  096%=      5-min Rain = 0
KWA1 241402Z 13004KT 15/14 A2993 RMK A01 T01450138  RH  095%=      5-min Rain = 0
KWA1 241403Z 13004KT 15/14 A2994 RMK A01 T01450137  RH  095%=      5-min Rain = 0
KWA1 241404Z 13004KT 15/14 A2994 RMK A01 T01450136  RH  095%=      5-min Rain = 0
KWA1 241405Z 13004KT 15/14 A2994 RMK A01 T01450136  RH  094%=      5-min Rain = 0
KWA1 241406Z 13004KT 15/14 A2994 RMK A01 T01460137  RH  095%=      5-min Rain = 0
KWA1 241407Z 12003KT 15/14 A2994 RMK A01 T01460137  RH  094%=      5-min Rain = 0
KWA1 241408Z 11003KT 15/14 A2994 RMK A01 T01460137  RH  095%=      5-min Rain = 0
KWA1 241409Z 11003KT 15/14 A2994 RMK A01 T01460137  RH  094%=      5-min Rain = 0
KWA1 241410Z 08004KT 15/14 A2994 RMK A01 T01460138  RH  094%=      5-min Rain = 0
KWA1 241411Z 09005KT 15/14 A2994 RMK A01 T01460137  RH  094%=      5-min Rain = 0
KWA1 241412Z 10005KT 15/14 A2994 RMK A01 T01460137  RH  094%=      5-min Rain = 0
KWA1 241413Z 09005KT 15/14 A2995 RMK A01 T01460137  RH  094%=      5-min Rain = 0
KWA1 241414Z 09006KT 15/14 A2995 RMK A01 T01470138  RH  094%=      5-min Rain = 0
KWA1 241415Z 09007KT 15/14 A2995 RMK A01 T01470138  RH  094%=      5-min Rain = 0
KWA1 241416Z 08007KT 15/14 A2994 RMK A01 T01480139  RH  094%=      5-min Rain = 0
KWA1 241417Z 08008KT 15/14 A2994 RMK A01 T01480138  RH  094%=      5-min Rain = 0
KWA1 241418Z 06007KT 15/14 A2994 RMK A01 T01470137  RH  094%=      5-min Rain = 0
KWA1 241419Z 06007KT 15/14 A2994 RMK A01 T01470137  RH  093%=      5-min Rain = 0
KWA1 241420Z 05008KT 15/14 A2994 RMK A01 T01470137  RH  093%=      5-min Rain = 0
KWA1 241435Z 06007KT 15/14 A2993 RMK A01 T01470138  RH  094%=      5-min Rain = 0
KWA1 241436Z 07006KT 15/14 A2994 RMK A01 T01480138  RH  094%=      5-min Rain = 0
KWA1 241437Z 07007KT 15/14 A2994 RMK A01 T01480138  RH  094%=      5-min Rain = 0
KWA1 241438Z 07008KT 15/14 A2994 RMK A01 T01470137  RH  094%=      5-min Rain = 0
KWA1 241439Z 06008KT 15/14 A2994 RMK A01 T01470137  RH  094%=      5-min Rain = 0
KWA1 241440Z 06007KT 15/14 A2994 RMK A01 T01470136  RH  093%=      5-min Rain = 0
KWA1 241441Z 06008KT 15/14 A2993 RMK A01 T01470137  RH  094%=      5-min Rain = 0
KWA1 241442Z 06009KT 15/14 A2993 RMK A01 T01470138  RH  094%=      5-min Rain = 0.01
KWA1 241443Z 06010KT 15/14 A2992 RMK A01 T01470137  RH  094%=      5-min Rain = 0
KWA1 241444Z 06009KT 15/14 A2992 RMK A01 T01470137  RH  094%=      5-min Rain = 0
KWA1 241445Z 06009KT 15/14 A2993 RMK A01 T01470139  RH  095%=      5-min Rain = 0
KWA1 241446Z 06008KT 15/14 A2993 RMK A01 T01470138  RH  094%=      5-min Rain = 0
KWA1 241447Z 07009KT 15/14 A2994 RMK A01 T01460138  RH  094%=      5-min Rain = 0
KWA1 241448Z 08008KT 15/14 A2994 RMK A01 T01460137  RH  094%=      5-min Rain = 0
KWA1 241449Z 09008KT 15/14 A2994 RMK A01 T01460137  RH  094%=      5-min Rain = 0
KWA1 241450Z 10008KT 15/14 A2995 RMK A01 T01460137  RH  094%=      5-min Rain = 0
KWA1 241451Z 10007KT 15/14 A2995 RMK A01 T01460137  RH  094%=      5-min Rain = 0
KWA1 241452Z 09009KT 15/14 A2995 RMK A01 T01460137  RH  094%=      5-min Rain = 0
KWA1 241453Z 09012KT 15/14 A2994 RMK A01 T01460136  RH  094%=      5-min Rain = 0.01
KWA1 241454Z 09011KT 15/14 A2994 RMK A01 T01460135  RH  093%=      5-min Rain = 0
KWA1 241455Z 08012KT 15/14 A2993 RMK A01 T01460136  RH  094%=      5-min Rain = 0.01
KWA1 241456Z 08013KT 15/14 A2993 RMK A01 T01460136  RH  094%=      5-min Rain = 0
KWA1 241457Z 08012KT 15/14 A2993 RMK A01 T01450135  RH  094%=      5-min Rain = 0
KWA1 241458Z 09012KT 15/14 A2993 RMK A01 T01460135  RH  094%=      5-min Rain = 0
KWA1 241459Z 08009KT 15/14 A2993 RMK A01 T01450135  RH  094%=      5-min Rain = 0
KWA1 241500Z 08008KT 15/14 A2993 RMK A01 T01450136  RH  094%=      5-min Rain = 0
KWA1 241501Z 08009KT 15/14 A2993 RMK A01 T01450136  RH  094%=      5-min Rain = 0
KWA1 241502Z 08007KT 15/14 A2993 RMK A01 T01450136  RH  094%=      5-min Rain = 0
KWA1 241503Z 07007KT 15/14 A2992 RMK A01 T01450136  RH  094%=      5-min Rain = 0
KWA1 241504Z 07008KT 15/14 A2992 RMK A01 T01450136  RH  094%=      5-min Rain = 0.01
KWA1 241505Z 08009KT 15/14 A2992 RMK A01 T01450135  RH  094%=      5-min Rain = 0
KWA1 241506Z 08010KT 15/14 A2992 RMK A01 T01450135  RH  094%=      5-min Rain = 0
KWA1 241507Z 07011KT 15/14 A2992 RMK A01 T01450135  RH  094%=      5-min Rain = 0
KWA1 241508Z 07011KT 15/14 A2991 RMK A01 T01450135  RH  094%=      5-min Rain = 0
KWA1 241509Z 07013KT 15/14 A2991 RMK A01 T01450136  RH  094%=      5-min Rain = 0
KWA1 241510Z 07012KT 15/14 A299 RMK A01 T01460137  RH  094%=      5-min Rain = 0
KWA1 241511Z 07013KT 15/14 A299 RMK A01 T01450137  RH  095%=      5-min Rain = 0
KWA1 241512Z 07011KT 15/14 A299 RMK A01 T01450136  RH  095%=      5-min Rain = 0
KWA1 241513Z 08012KT 15/14 A2991 RMK A01 T01450136  RH  094%=      5-min Rain = 0
KWA1 241514Z 08010KT 14/14 A2991 RMK A01 T01440135  RH  094%=      5-min Rain = 0
KWA1 241515Z 09009KT 14/14 A2992 RMK A01 T01440135  RH  094%=      5-min Rain = 0
KWA1 241516Z 10006KT 14/14 A2992 RMK A01 T01440135  RH  094%=      5-min Rain = 0
KWA1 241517Z 11005KT 14/14 A2993 RMK A01 T01440136  RH  094%=      5-min Rain = 0
KWA1 241518Z 11006KT 14/14 A2993 RMK A01 T01440135  RH  094%=      5-min Rain = 0
KWA1 241519Z 10007KT 14/14 A2993 RMK A01 T01440135  RH  094%=      5-min Rain = 0
KWA1 241520Z 09009KT 14/14 A2992 RMK A01 T01440135  RH  094%=      5-min Rain = 0
KWA1 241521Z 08009KT 14/14 A2992 RMK A01 T01440135  RH  094%=      5-min Rain = 0
KWA1 241522Z 07011KT 14/14 A2992 RMK A01 T01440135  RH  094%=      5-min Rain = 0.01
KWA1 241523Z 06011KT 15/14 A2991 RMK A01 T01450135  RH  094%=      5-min Rain = 0.01
KWA1 241524Z 06011KT 14/14 A2991 RMK A01 T01440135  RH  094%=      5-min Rain = 0
KWA1 241525Z 06009KT 14/14 A2991 RMK A01 T01440135  RH  094%=      5-min Rain = 0
KWA1 241526Z 05008KT 14/14 A2991 RMK A01 T01440135  RH  094%=      5-min Rain = 0
KWA1 241527Z 05007KT 14/14 A2992 RMK A01 T01440135  RH  094%=      5-min Rain = 0
KWA1 241528Z 05006KT 14/14 A2992 RMK A01 T01440135  RH  094%=      5-min Rain = 0
KWA1 241529Z 05004KT 14/13 A2992 RMK A01 T01440134  RH  094%=      5-min Rain = 0
KWA1 241530Z 02002KT 14/13 A2993 RMK A01 T01440134  RH  094%=      5-min Rain = 0
KWA1 241531Z 29000KT 14/13 A2993 RMK A01 T01440134  RH  093%=      5-min Rain = 0
KWA1 241532Z 29002KT 14/13 A2994 RMK A01 T01440134  RH  093%=      5-min Rain = 0
KWA1 241533Z 29002KT 14/13 A2994 RMK A01 T01440133  RH  093%=      5-min Rain = 0
KWA1 241534Z 29002KT 14/13 A2994 RMK A01 T01440133  RH  093%=      5-min Rain = 0.01
KWA1 241535Z 28003KT 14/13 A2995 RMK A01 T01440132  RH  093%=      5-min Rain = 0
KWA1 241536Z 27005KT 14/13 A2995 RMK A01 T01440133  RH  093%=      5-min Rain = 0
KWA1 241537Z 27005KT 15/13 A2996 RMK A01 T01450134  RH  093%=      5-min Rain = 0
KWA1 241538Z 27006KT 15/13 A2996 RMK A01 T01450134  RH  093%=      5-min Rain = 0
KWA1 241539Z 28007KT 15/13 A2996 RMK A01 T01450134  RH  093%=      5-min Rain = 0.01
KWA1 241540Z 28008KT 15/14 A2996 RMK A01 T01460135  RH  094%=      5-min Rain = 0
KWA1 241541Z 30010KT 15/14 A2995 RMK A01 T01450136  RH  094%=      5-min Rain = 0
KWA1 241542Z 31011KT 15/14 A2994 RMK A01 T01450136  RH  094%=      5-min Rain = 0
KWA1 241543Z 33012KT 15/14 A2993 RMK A01 T01450136  RH  094%=      5-min Rain = 0.01
KWA1 241544Z 34013KT 15/14 A2992 RMK A01 T01450136  RH  095%=      5-min Rain = 0
KWA1 241545Z 35014KT 14/14 A2991 RMK A01 T01440136  RH  095%=      5-min Rain = 0
KWA1 241546Z 00013KT 14/14 A2991 RMK A01 T01440136  RH  095%=      5-min Rain = 0.01
KWA1 241547Z 01012KT 14/14 A2991 RMK A01 T01430136  RH  095%=      5-min Rain = 0
KWA1 241548Z 00009KT 14/14 A2992 RMK A01 T01430136  RH  095%=      5-min Rain = 0.01
KWA1 241549Z 36006KT 14/14 A2993 RMK A01 T01430136  RH  096%=      5-min Rain = 0.01
KWA1 241550Z 33006KT 14/14 A2994 RMK A01 T01430136  RH  096%=      5-min Rain = 0.01
KWA1 241551Z 30005KT 14/14 A2996 RMK A01 T01430136  RH  096%=      5-min Rain = 0.01
KWA1 241552Z 28006KT 14/14 A2997 RMK A01 T01430136  RH  096%=      5-min Rain = 0
KWA1 241553Z 26007KT 14/14 A2998 RMK A01 T01430136  RH  096%=      5-min Rain = 0
KWA1 241554Z 25008KT 14/14 A2999 RMK A01 T01430136  RH  096%=      5-min Rain = 0
KWA1 241555Z 24009KT 14/14 A2999 RMK A01 T01430137  RH  096%=      5-min Rain = 0
KWA1 241556Z 24010KT 14/14 A30 RMK A01 T01440137  RH  096%=      5-min Rain = 0
KWA1 241557Z 23010KT 14/14 A30 RMK A01 T01440137  RH  096%=      5-min Rain = 0
KWA1 241558Z 23010KT 14/14 A3001 RMK A01 T01440137  RH  095%=      5-min Rain = 0
KWA1 241559Z 24011KT 14/14 A3001 RMK A01 T01440137  RH  095%=      5-min Rain = 0
KWA1 241600Z 24010KT 15/14 A3001 RMK A01 T01450138  RH  096%=      5-min Rain = 0
KWA1 241601Z 24012KT 15/14 A3001 RMK A01 T01450138  RH  096%=      5-min Rain = 0.01
KWA1 241602Z 24012KT 15/14 A3001 RMK A01 T01450138  RH  096%=      5-min Rain = 0
KWA1 241603Z 24012KT 15/14 A3001 RMK A01 T01450138  RH  096%=      5-min Rain = 0
KWA1 241604Z 24012KT 14/14 A3001 RMK A01 T01440138  RH  096%=      5-min Rain = 0
KWA1 241605Z 24012KT 14/14 A3001 RMK A01 T01440138  RH  096%=      5-min Rain = 0.01
KWA1 241606Z 25011KT 14/14 A3001 RMK A01 T01440138  RH  096%=      5-min Rain = 0.01
KWA1 241607Z 25011KT 14/14 A3001 RMK A01 T01430138  RH  096%=      5-min Rain = 0
KWA1 241608Z 25011KT 14/14 A3001 RMK A01 T01430138  RH  097%=      5-min Rain = 0
KWA1 241609Z 25010KT 14/14 A3001 RMK A01 T01430138  RH  097%=      5-min Rain = 0
KWA1 241610Z 25010KT 14/14 A3001 RMK A01 T01430137  RH  097%=      5-min Rain = 0.01
KWA1 241611Z 25010KT 14/14 A3001 RMK A01 T01430138  RH  097%=      5-min Rain = 0
KWA1 241612Z 25010KT 14/14 A3001 RMK A01 T01430138  RH  097%=      5-min Rain = 0
KWA1 241613Z 25010KT 14/14 A30 RMK A01 T01430138  RH  097%=      5-min Rain = 0
KWA1 241614Z 26009KT 14/14 A30 RMK A01 T01430138  RH  097%=      5-min Rain = 0.01
KWA1 241615Z 26009KT 14/14 A30 RMK A01 T01430138  RH  097%=      5-min Rain = 0
KWA1 241616Z 26010KT 14/14 A2999 RMK A01 T01420138  RH  097%=      5-min Rain = 0
KWA1 241617Z 27009KT 14/14 A2999 RMK A01 T01430138  RH  097%=      5-min Rain = 0.01
KWA1 241618Z 28008KT 14/14 A2999 RMK A01 T01420137  RH  097%=      5-min Rain = 0
KWA1 241619Z 28008KT 14/14 A2999 RMK A01 T01420138  RH  097%=      5-min Rain = 0
KWA1 241620Z 28008KT 14/14 A2999 RMK A01 T01420138  RH  097%=      5-min Rain = 0
KWA1 241621Z 29006KT 14/14 A2999 RMK A01 T01420138  RH  097%=      5-min Rain = 0.01
KWA1 241622Z 29006KT 14/14 A2999 RMK A01 T01420138  RH  097%=      5-min Rain = 0
KWA1 241623Z 29006KT 14/14 A2999 RMK A01 T01420138  RH  097%=      5-min Rain = 0
KWA1 241624Z 29007KT 14/14 A2999 RMK A01 T01420138  RH  097%=      5-min Rain = 0
KWA1 241625Z 29006KT 14/14 A2999 RMK A01 T01420138  RH  097%=      5-min Rain = 0
KWA1 241626Z 29006KT 14/14 A2999 RMK A01 T01420138  RH  097%=      5-min Rain = 0.01
KWA1 241627Z 30006KT 14/14 A2999 RMK A01 T01420138  RH  097%=      5-min Rain = 0
KWA1 241628Z 30006KT 14/14 A2999 RMK A01 T01420138  RH  097%=      5-min Rain = 0
KWA1 241629Z 30006KT 14/14 A2999 RMK A01 T01420138  RH  097%=      5-min Rain = 0
KWA1 241630Z 31005KT 14/14 A2999 RMK A01 T01430139  RH  097%=      5-min Rain = 0.01
KWA1 241631Z 31004KT 14/14 A2999 RMK A01 T01430139  RH  097%=      5-min Rain = 0
KWA1 241632Z 30004KT 14/14 A2999 RMK A01 T01430139  RH  098%=      5-min Rain = 0.01
KWA1 241633Z 30004KT 14/14 A2999 RMK A01 T01430139  RH  098%=      5-min Rain = 0
KWA1 241634Z 30004KT 14/14 A2999 RMK A01 T01420139  RH  098%=      5-min Rain = 0
KWA1 241635Z 30004KT 14/14 A30 RMK A01 T01420139  RH  098%=      5-min Rain = 0
KWA1 241636Z 30004KT 14/14 A30 RMK A01 T01420138  RH  098%=      5-min Rain = 0.01
KWA1 241637Z 29004KT 14/14 A30 RMK A01 T01420139  RH  098%=      5-min Rain = 0
KWA1 241638Z 29005KT 14/14 A30 RMK A01 T01420139  RH  098%=      5-min Rain = 0.01
KWA1 241639Z 29005KT 14/14 A30 RMK A01 T01420139  RH  098%=      5-min Rain = 0
KWA1 241640Z 29005KT 14/14 A30 RMK A01 T01420139  RH  098%=      5-min Rain = 0
KWA1 241641Z 29006KT 14/14 A30 RMK A01 T01420139  RH  098%=      5-min Rain = 0.01
KWA1 241642Z 29006KT 14/14 A30 RMK A01 T01420139  RH  098%=      5-min Rain = 0
KWA1 241643Z 29006KT 14/14 A30 RMK A01 T01420139  RH  098%=      5-min Rain = 0
KWA1 241644Z 29007KT 14/14 A30 RMK A01 T01420139  RH  098%=      5-min Rain = 0.01
KWA1 241645Z 29007KT 14/14 A30 RMK A01 T01420139  RH  098%=      5-min Rain = 0
KWA1 241646Z 29007KT 14/14 A30 RMK A01 T01420139  RH  098%=      5-min Rain = 0
KWA1 241647Z 29007KT 14/14 A30 RMK A01 T01420139  RH  098%=      5-min Rain = 0.01
KWA1 241648Z 29008KT 14/14 A30 RMK A01 T01420139  RH  098%=      5-min Rain = 0
KWA1 241649Z 29008KT 14/14 A30 RMK A01 T01420139  RH  098%=      5-min Rain = 0
KWA1 241650Z 30008KT 14/14 A2999 RMK A01 T01420139  RH  098%=      5-min Rain = 0.01
KWA1 241651Z 30009KT 14/14 A2999 RMK A01 T01420139  RH  098%=      5-min Rain = 0
KWA1 241652Z 29008KT 14/14 A2999 RMK A01 T01420139  RH  098%=      5-min Rain = 0.01
KWA1 241653Z 29009KT 14/14 A2999 RMK A01 T01420139  RH  098%=      5-min Rain = 0
KWA1 241654Z 29009KT 14/14 A2999 RMK A01 T01420139  RH  098%=      5-min Rain = 0.01
KWA1 241655Z 29009KT 14/14 A30 RMK A01 T01420139  RH  098%=      5-min Rain = 0
KWA1 241656Z 29009KT 14/14 A30 RMK A01 T01420139  RH  098%=      5-min Rain = 0
KWA1 241657Z 29009KT 14/14 A30 RMK A01 T01420139  RH  098%=      5-min Rain = 0.01
KWA1 241658Z 29008KT 14/14 A30 RMK A01 T01420139  RH  098%=      5-min Rain = 0
KWA1 241659Z 29009KT 14/14 A30 RMK A01 T01420139  RH  098%=      5-min Rain = 0.01
KWA1 241700Z 28009KT 14/14 A30 RMK A01 T01420139  RH  098%=      5-min Rain = 0
KWA1 241701Z 28008KT 14/14 A30 RMK A01 T01420139  RH  098%=      5-min Rain = 0.01
KWA1 241702Z 28008KT 14/14 A3001 RMK A01 T01420139  RH  098%=      5-min Rain = 0
KWA1 241703Z 28008KT 14/14 A3001 RMK A01 T01420139  RH  098%=      5-min Rain = 0.01
KWA1 241704Z 28008KT 14/14 A3001 RMK A01 T01420139  RH  098%=      5-min Rain = 0
KWA1 241705Z 28008KT 14/14 A3001 RMK A01 T01420139  RH  098%=      5-min Rain = 0
KWA1 241706Z 28008KT 14/14 A3001 RMK A01 T01420139  RH  098%=      5-min Rain = 0.01
KWA1 241707Z 28007KT 14/14 A3001 RMK A01 T01420139  RH  098%=      5-min Rain = 0
KWA1 241708Z 28007KT 14/14 A3001 RMK A01 T01420139  RH  098%=      5-min Rain = 0.01
KWA1 241709Z 28007KT 14/14 A3001 RMK A01 T01420139  RH  098%=      5-min Rain = 0
KWA1 241710Z 28006KT 14/14 A30 RMK A01 T01420139  RH  098%=      5-min Rain = 0
KWA1 241711Z 28007KT 14/14 A30 RMK A01 T01420139  RH  098%=      5-min Rain = 0.01
KWA1 241712Z 28006KT 14/14 A30 RMK A01 T01420139  RH  098%=      5-min Rain = 0
KWA1 241713Z 28006KT 14/14 A30 RMK A01 T01420140  RH  098%=      5-min Rain = 0.01
KWA1 241714Z 28007KT 14/14 A30 RMK A01 T01420140  RH  098%=      5-min Rain = 0
KWA1 241715Z 28007KT 14/14 A30 RMK A01 T01420139  RH  098%=      5-min Rain = 0.01
KWA1 241716Z 28006KT 14/14 A30 RMK A01 T01420139  RH  098%=      5-min Rain = 0
KWA1 241717Z 27007KT 14/14 A30 RMK A01 T01420139  RH  098%=      5-min Rain = 0.01
KWA1 241718Z 28006KT 14/14 A30 RMK A01 T01410139  RH  098%=      5-min Rain = 0
KWA1 241719Z 28006KT 14/14 A30 RMK A01 T01410138  RH  098%=      5-min Rain = 0.01
KWA1 241720Z 28007KT 14/14 A30 RMK A01 T01410138  RH  098%=      5-min Rain = 0
KWA1 241721Z 28005KT 14/14 A30 RMK A01 T01410138  RH  098%=      5-min Rain = 0.01
KWA1 241722Z 28007KT 14/14 A30 RMK A01 T01420139  RH  098%=      5-min Rain = 0
KWA1 241723Z 28007KT 14/14 A30 RMK A01 T01420139  RH  098%=      5-min Rain = 0.01
KWA1 241724Z 28006KT 14/14 A30 RMK A01 T01420139  RH  098%=      5-min Rain = 0
KWA1 241725Z 29006KT 14/14 A30 RMK A01 T01420139  RH  098%=      5-min Rain = 0.01
KWA1 241726Z 29007KT 14/14 A30 RMK A01 T01430140  RH  098%=      5-min Rain = 0.01
KWA1 241727Z 28007KT 14/14 A30 RMK A01 T01430140  RH  098%=      5-min Rain = 0
KWA1 241728Z 29007KT 14/14 A30 RMK A01 T01430140  RH  098%=      5-min Rain = 0.01
KWA1 241729Z 29007KT 14/14 A30 RMK A01 T01430140  RH  098%=      5-min Rain = 0
KWA1 241730Z 29006KT 14/14 A30 RMK A01 T01430140  RH  098%=      5-min Rain = 0.01
KWA1 241731Z 29006KT 14/14 A30 RMK A01 T01430140  RH  098%=      5-min Rain = 0
KWA1 241732Z 29006KT 14/14 A30 RMK A01 T01430140  RH  098%=      5-min Rain = 0.01
KWA1 241733Z 29005KT 14/14 A30 RMK A01 T01430140  RH  098%=      5-min Rain = 0
KWA1 241734Z 29005KT 14/14 A30 RMK A01 T01430140  RH  098%=      5-min Rain = 0
KWA1 241735Z 29005KT 14/14 A30 RMK A01 T01430140  RH  098%=      5-min Rain = 0.01
KWA1 241736Z 29004KT 14/14 A2999 RMK A01 T01430140  RH  098%=      5-min Rain = 0
KWA1 241737Z 30005KT 14/14 A2999 RMK A01 T01430140  RH  098%=      5-min Rain = 0
KWA1 241738Z 30004KT 14/14 A2999 RMK A01 T01430140  RH  098%=      5-min Rain = 0.01
KWA1 241739Z 30004KT 14/14 A2999 RMK A01 T01440141  RH  098%=      5-min Rain = 0
KWA1 241740Z 31005KT 14/14 A2999 RMK A01 T01440141  RH  098%=      5-min Rain = 0
KWA1 241741Z 31006KT 14/14 A2998 RMK A01 T01440141  RH  098%=      5-min Rain = 0.01
KWA1 241742Z 31006KT 14/14 A2998 RMK A01 T01440141  RH  098%=      5-min Rain = 0
KWA1 241743Z 31005KT 14/14 A2998 RMK A01 T01430141  RH  098%=      5-min Rain = 0
KWA1 241744Z 31006KT 14/14 A2998 RMK A01 T01440141  RH  098%=      5-min Rain = 0
KWA1 241745Z 31007KT 14/14 A2998 RMK A01 T01440142  RH  098%=      5-min Rain = 0.01
KWA1 241746Z 31007KT 15/14 A2998 RMK A01 T01450142  RH  098%=      5-min Rain = 0
KWA1 241747Z 30007KT 15/14 A2998 RMK A01 T01450142  RH  098%=      5-min Rain = 0
KWA1 241748Z 31007KT 15/14 A2998 RMK A01 T01450143  RH  098%=      5-min Rain = 0
KWA1 241749Z 31007KT 15/14 A2997 RMK A01 T01450142  RH  098%=      5-min Rain = 0
KWA1 241750Z 31008KT 15/14 A2997 RMK A01 T01460143  RH  098%=      5-min Rain = 0.01
KWA1 241751Z 31008KT 15/14 A2997 RMK A01 T01450142  RH  098%=      5-min Rain = 0
KWA1 241752Z 31007KT 15/14 A2997 RMK A01 T01450142  RH  098%=      5-min Rain = 0
KWA1 241753Z 32007KT 15/14 A2997 RMK A01 T01460143  RH  098%=      5-min Rain = 0
KWA1 241754Z 32008KT 15/14 A2997 RMK A01 T01460143  RH  098%=      5-min Rain = 0
KWA1 241755Z 32008KT 15/14 A2997 RMK A01 T01470143  RH  098%=      5-min Rain = 0
KWA1 241756Z 32008KT 15/14 A2997 RMK A01 T01460143  RH  098%=      5-min Rain = 0
KWA1 241757Z 32008KT 15/14 A2997 RMK A01 T01460143  RH  098%=      5-min Rain = 0
KWA1 241758Z 32009KT 15/14 A2997 RMK A01 T01470143  RH  098%=      5-min Rain = 0.01
KWA1 241759Z 33008KT 15/14 A2997 RMK A01 T01460143  RH  098%=      5-min Rain = 0
KWA1 241800Z 32009KT 15/14 A2997 RMK A01 T01460143  RH  098%=      5-min Rain = 0
KWA1 241801Z 32009KT 15/14 A2997 RMK A01 T01460142  RH  098%=      5-min Rain = 0
KWA1 241802Z 32007KT 15/14 A2997 RMK A01 T01450141  RH  097%=      5-min Rain = 0
KWA1 241803Z 32007KT 15/14 A2997 RMK A01 T01460142  RH  098%=      5-min Rain = 0
KWA1 241804Z 32008KT 15/14 A2997 RMK A01 T01470143  RH  098%=      5-min Rain = 0
KWA1 241805Z 32008KT 15/14 A2997 RMK A01 T01460142  RH  097%=      5-min Rain = 0
KWA1 241806Z 32007KT 15/14 A2997 RMK A01 T01460142  RH  097%=      5-min Rain = 0.01
KWA1 241807Z 31007KT 15/14 A2997 RMK A01 T01460142  RH  097%=      5-min Rain = 0
KWA1 241808Z 31008KT 15/14 A2997 RMK A01 T01460141  RH  097%=      5-min Rain = 0
KWA1 241809Z 32007KT 15/14 A2997 RMK A01 T01450141  RH  097%=      5-min Rain = 0
KWA1 241810Z 31008KT 15/14 A2997 RMK A01 T01450141  RH  097%=      5-min Rain = 0
KWA1 241811Z 32007KT 15/14 A2997 RMK A01 T01450141  RH  097%=      5-min Rain = 0.01
KWA1 241812Z 32007KT 15/14 A2997 RMK A01 T01450141  RH  097%=      5-min Rain = 0
KWA1 241813Z 32006KT 15/14 A2996 RMK A01 T01460141  RH  097%=      5-min Rain = 0
KWA1 241814Z 33007KT 15/14 A2996 RMK A01 T01470142  RH  097%=      5-min Rain = 0
KWA1 241815Z 33009KT 15/14 A2996 RMK A01 T01470142  RH  097%=      5-min Rain = 0
KWA1 241816Z 33008KT 15/14 A2995 RMK A01 T01460141  RH  097%=      5-min Rain = 0
KWA1 241817Z 34008KT 15/14 A2995 RMK A01 T01470142  RH  097%=      5-min Rain = 0
KWA1 241818Z 34009KT 15/14 A2995 RMK A01 T01480142  RH  097%=      5-min Rain = 0.01
KWA1 241819Z 34009KT 15/14 A2995 RMK A01 T01480142  RH  097%=      5-min Rain = 0
KWA1 241820Z 34008KT 15/14 A2995 RMK A01 T01480143  RH  097%=      5-min Rain = 0
KWA1 241821Z 34008KT 15/14 A2995 RMK A01 T01480143  RH  097%=      5-min Rain = 0
KWA1 241822Z 34008KT 15/14 A2995 RMK A01 T01480142  RH  096%=      5-min Rain = 0.01
KWA1 241823Z 33008KT 15/14 A2995 RMK A01 T01480142  RH  096%=      5-min Rain = 0
KWA1 241824Z 33007KT 15/14 A2995 RMK A01 T01480142  RH  096%=      5-min Rain = 0.01
KWA1 241825Z 32008KT 15/14 A2995 RMK A01 T01500144  RH  097%=      5-min Rain = 0
KWA1 241826Z 32008KT 15/14 A2995 RMK A01 T01500144  RH  096%=      5-min Rain = 0
KWA1 241827Z 32007KT 15/14 A2995 RMK A01 T01500144  RH  096%=      5-min Rain = 0.01
KWA1 241828Z 32007KT 15/15 A2995 RMK A01 T01500145  RH  097%=      5-min Rain = 0
KWA1 241829Z 32007KT 15/14 A2995 RMK A01 T01500144  RH  096%=      5-min Rain = 0
KWA1 241830Z 33006KT 15/14 A2995 RMK A01 T01500144  RH  096%=      5-min Rain = 0
KWA1 241831Z 32007KT 15/15 A2995 RMK A01 T01510146  RH  097%=      5-min Rain = 0.01
KWA1 241832Z 32007KT 15/14 A2995 RMK A01 T01500144  RH  096%=      5-min Rain = 0
KWA1 241833Z 32007KT 15/15 A2995 RMK A01 T01500145  RH  097%=      5-min Rain = 0.01
KWA1 241834Z 32008KT 15/15 A2995 RMK A01 T01510147  RH  097%=      5-min Rain = 0
KWA1 241835Z 32008KT 15/15 A2995 RMK A01 T01520147  RH  097%=      5-min Rain = 0
KWA1 241836Z 32007KT 15/15 A2995 RMK A01 T01510146  RH  097%=      5-min Rain = 0
KWA1 241837Z 32008KT 15/15 A2995 RMK A01 T01520147  RH  097%=      5-min Rain = 0
KWA1 241838Z 33006KT 15/14 A2995 RMK A01 T01500144  RH  096%=      5-min Rain = 0.01
KWA1 241839Z 32006KT 15/14 A2995 RMK A01 T01500144  RH  097%=      5-min Rain = 0
KWA1 241840Z 32007KT 15/15 A2995 RMK A01 T01500145  RH  097%=      5-min Rain = 0
KWA1 241841Z 31007KT 15/14 A2995 RMK A01 T01500144  RH  096%=      5-min Rain = 0
KWA1 241842Z 33006KT 15/14 A2995 RMK A01 T01500144  RH  096%=      5-min Rain = 0
KWA1 241843Z 33005KT 15/14 A2995 RMK A01 T01500144  RH  096%=      5-min Rain = 0
KWA1 241844Z 33005KT 15/14 A2995 RMK A01 T01490142  RH  096%=      5-min Rain = 0
KWA1 241845Z 32004KT 15/14 A2995 RMK A01 T01480141  RH  095%=      5-min Rain = 0
KWA1 241846Z 32002KT 15/14 A2995 RMK A01 T01480140  RH  095%=      5-min Rain = 0
KWA1 241847Z 30002KT 15/14 A2996 RMK A01 T01480142  RH  096%=      5-min Rain = 0
KWA1 241848Z 27003KT 15/14 A2996 RMK A01 T01490142  RH  096%=      5-min Rain = 0
KWA1 241849Z 26002KT 15/14 A2996 RMK A01 T01490142  RH  095%=      5-min Rain = 0
KWA1 241850Z 25003KT 15/14 A2996 RMK A01 T01490141  RH  095%=      5-min Rain = 0
KWA1 241851Z 25004KT 15/14 A2997 RMK A01 T01490142  RH  096%=      5-min Rain = 0
KWA1 241852Z 25004KT 15/14 A2997 RMK A01 T01490142  RH  095%=      5-min Rain = 0
KWA1 241853Z 25005KT 15/14 A2997 RMK A01 T01490141  RH  095%=      5-min Rain = 0
KWA1 241854Z 25004KT 15/14 A2997 RMK A01 T01490141  RH  095%=      5-min Rain = 0
KWA1 241855Z 24004KT 15/14 A2997 RMK A01 T01490141  RH  095%=      5-min Rain = 0
KWA1 241856Z 24004KT 15/14 A2997 RMK A01 T01500142  RH  095%=      5-min Rain = 0
KWA1 241857Z 25003KT 15/14 A2997 RMK A01 T01500141  RH  094%=      5-min Rain = 0
KWA1 241858Z 25002KT 15/14 A2997 RMK A01 T01490140  RH  094%=      5-min Rain = 0
KWA1 241859Z 24002KT 15/14 A2996 RMK A01 T01500140  RH  094%=      5-min Rain = 0
KWA1 241900Z 24000KT 15/14 A2996 RMK A01 T01490139  RH  094%=      5-min Rain = 0
KWA1 241901Z 00000KT 15/14 A2996 RMK A01 T01490139  RH  094%=      5-min Rain = 0
KWA1 241902Z 02000KT 15/14 A2995 RMK A01 T01490139  RH  094%=      5-min Rain = 0
KWA1 241903Z 02001KT 15/14 A2995 RMK A01 T01490139  RH  094%=      5-min Rain = 0
KWA1 241904Z 03002KT 15/14 A2995 RMK A01 T01490138  RH  093%=      5-min Rain = 0
KWA1 241905Z 04002KT 15/14 A2995 RMK A01 T01490137  RH  093%=      5-min Rain = 0
KWA1 241906Z 07002KT 15/14 A2995 RMK A01 T01490137  RH  093%=      5-min Rain = 0
KWA1 241907Z 10002KT 15/14 A2995 RMK A01 T01490138  RH  093%=      5-min Rain = 0
KWA1 241908Z 11003KT 15/14 A2995 RMK A01 T01490139  RH  093%=      5-min Rain = 0
KWA1 241909Z 12003KT 15/14 A2995 RMK A01 T01490139  RH  093%=      5-min Rain = 0
KWA1 241910Z 14004KT 15/14 A2996 RMK A01 T01490139  RH  093%=      5-min Rain = 0.01
KWA1 241911Z 14005KT 15/14 A2996 RMK A01 T01500141  RH  094%=      5-min Rain = 0
KWA1 241912Z 14005KT 15/14 A2996 RMK A01 T01500141  RH  094%=      5-min Rain = 0
KWA1 241913Z 15005KT 15/14 A2996 RMK A01 T01510142  RH  094%=      5-min Rain = 0
KWA1 241914Z 16004KT 15/14 A2996 RMK A01 T01510142  RH  094%=      5-min Rain = 0
KWA1 241915Z 17004KT 15/14 A2996 RMK A01 T01510141  RH  094%=      5-min Rain = 0
KWA1 241916Z 18004KT 15/14 A2997 RMK A01 T01510141  RH  094%=      5-min Rain = 0
KWA1 241917Z 19004KT 15/14 A2997 RMK A01 T01510143  RH  095%=      5-min Rain = 0
KWA1 241918Z 18004KT 15/14 A2997 RMK A01 T01520143  RH  095%=      5-min Rain = 0
KWA1 241919Z 19004KT 15/14 A2997 RMK A01 T01520143  RH  095%=      5-min Rain = 0
KWA1 241920Z 19005KT 15/14 A2997 RMK A01 T01520143  RH  094%=      5-min Rain = 0
KWA1 241921Z 19005KT 15/14 A2997 RMK A01 T01520143  RH  094%=      5-min Rain = 0
KWA1 241922Z 20005KT 15/14 A2997 RMK A01 T01520143  RH  094%=      5-min Rain = 0
KWA1 241923Z 19005KT 15/14 A2997 RMK A01 T01520143  RH  094%=      5-min Rain = 0
KWA1 241924Z 19005KT 15/14 A2997 RMK A01 T01520144  RH  095%=      5-min Rain = 0
KWA1 241925Z 20006KT 15/14 A2997 RMK A01 T01530144  RH  095%=      5-min Rain = 0
KWA1 241926Z 19006KT 15/14 A2997 RMK A01 T01520142  RH  094%=      5-min Rain = 0
KWA1 241927Z 18006KT 15/14 A2997 RMK A01 T01520142  RH  094%=      5-min Rain = 0
KWA1 241928Z 18006KT 15/14 A2997 RMK A01 T01520142  RH  094%=      5-min Rain = 0
KWA1 241929Z 18006KT 15/14 A2997 RMK A01 T01520143  RH  094%=      5-min Rain = 0
KWA1 241930Z 18007KT 15/14 A2997 RMK A01 T01530144  RH  094%=      5-min Rain = 0
KWA1 241931Z 19007KT 15/14 A2997 RMK A01 T01530144  RH  095%=      5-min Rain = 0
KWA1 241932Z 19006KT 15/14 A2997 RMK A01 T01530144  RH  094%=      5-min Rain = 0
KWA1 241933Z 18006KT 15/14 A2997 RMK A01 T01520143  RH  094%=      5-min Rain = 0
KWA1 241934Z 19007KT 15/14 A2997 RMK A01 T01520142  RH  094%=      5-min Rain = 0
KWA1 241935Z 19006KT 15/14 A2997 RMK A01 T01520142  RH  094%=      5-min Rain = 0
KWA1 241936Z 19006KT 15/14 A2997 RMK A01 T01520142  RH  094%=      5-min Rain = 0
KWA1 241937Z 18007KT 15/14 A2997 RMK A01 T01520142  RH  094%=      5-min Rain = 0
KWA1 241938Z 18006KT 15/14 A2997 RMK A01 T01520142  RH  094%=      5-min Rain = 0
KWA1 241939Z 18006KT 15/14 A2997 RMK A01 T01520141  RH  094%=      5-min Rain = 0
KWA1 241940Z 18006KT 15/14 A2997 RMK A01 T01520143  RH  094%=      5-min Rain = 0
KWA1 241941Z 18005KT 15/14 A2997 RMK A01 T01520143  RH  094%=      5-min Rain = 0
KWA1 241942Z 18005KT 15/14 A2997 RMK A01 T01520142  RH  094%=      5-min Rain = 0.01
KWA1 241943Z 19004KT 15/14 A2997 RMK A01 T01510141  RH  094%=      5-min Rain = 0
KWA1 241944Z 19004KT 15/14 A2997 RMK A01 T01510141  RH  094%=      5-min Rain = 0
KWA1 241945Z 20004KT 15/14 A2997 RMK A01 T01510141  RH  094%=      5-min Rain = 0
KWA1 241946Z 21003KT 15/14 A2997 RMK A01 T01510140  RH  093%=      5-min Rain = 0
KWA1 241947Z 20002KT 15/14 A2997 RMK A01 T01510141  RH  094%=      5-min Rain = 0.01
KWA1 241948Z 20003KT 15/14 A2997 RMK A01 T01510141  RH  094%=      5-min Rain = 0
KWA1 241949Z 21003KT 15/14 A2997 RMK A01 T01500141  RH  094%=      5-min Rain = 0.01
KWA1 241950Z 20003KT 15/14 A2997 RMK A01 T01500141  RH  094%=      5-min Rain = 0
KWA1 241951Z 20004KT 15/14 A2997 RMK A01 T01500141  RH  094%=      5-min Rain = 0.01
KWA1 241952Z 20005KT 15/14 A2997 RMK A01 T01500141  RH  094%=      5-min Rain = 0
KWA1 241953Z 21005KT 15/14 A2998 RMK A01 T01500141  RH  094%=      5-min Rain = 0
KWA1 241954Z 21007KT 15/14 A2998 RMK A01 T01510144  RH  095%=      5-min Rain = 0
KWA1 241955Z 21007KT 15/14 A2998 RMK A01 T01520144  RH  095%=      5-min Rain = 0
KWA1 241956Z 22007KT 15/15 A2998 RMK A01 T01520145  RH  095%=      5-min Rain = 0
KWA1 241957Z 21008KT 15/15 A2999 RMK A01 T01530146  RH  096%=      5-min Rain = 0
KWA1 241958Z 21008KT 15/15 A2999 RMK A01 T01520145  RH  095%=      5-min Rain = 0.01
KWA1 241959Z 21007KT 15/15 A2998 RMK A01 T01520145  RH  096%=      5-min Rain = 0
KWA1 242000Z 21007KT 15/14 A2998 RMK A01 T01520144  RH  095%=      5-min Rain = 0
KWA1 242001Z 20007KT 15/14 A2998 RMK A01 T01510143  RH  095%=      5-min Rain = 0
KWA1 242002Z 20006KT 15/14 A2997 RMK A01 T01510143  RH  095%=      5-min Rain = 0
KWA1 242003Z 21005KT 15/14 A2997 RMK A01 T01510143  RH  095%=      5-min Rain = 0
KWA1 242004Z 21003KT 15/14 A2997 RMK A01 T01510143  RH  095%=      5-min Rain = 0
KWA1 242005Z 23003KT 15/14 A2997 RMK A01 T01510143  RH  095%=      5-min Rain = 0
KWA1 242006Z 23003KT 15/14 A2997 RMK A01 T01510143  RH  095%=      5-min Rain = 0
KWA1 242007Z 24004KT 15/14 A2997 RMK A01 T01510143  RH  095%=      5-min Rain = 0
KWA1 242008Z 25005KT 15/14 A2997 RMK A01 T01510143  RH  095%=      5-min Rain = 0
KWA1 242009Z 25007KT 15/14 A2997 RMK A01 T01510143  RH  095%=      5-min Rain = 0
KWA1 242010Z 25006KT 15/14 A2997 RMK A01 T01520144  RH  095%=      5-min Rain = 0
KWA1 242011Z 25007KT 15/15 A2997 RMK A01 T01540147  RH  095%=      5-min Rain = 0.01
KWA1 242012Z 25006KT 15/14 A2997 RMK A01 T01530144  RH  094%=      5-min Rain = 0
KWA1 242013Z 24006KT 15/15 A2997 RMK A01 T01530145  RH  095%=      5-min Rain = 0
KWA1 242014Z 24007KT 15/15 A2997 RMK A01 T01540146  RH  095%=      5-min Rain = 0
KWA1 242015Z 25006KT 15/15 A2997 RMK A01 T01540145  RH  094%=      5-min Rain = 0
KWA1 242016Z 25006KT 15/15 A2997 RMK A01 T01540146  RH  094%=      5-min Rain = 0
KWA1 242017Z 25006KT 16/15 A2997 RMK A01 T01550146  RH  094%=      5-min Rain = 0
KWA1 242018Z 24006KT 16/15 A2997 RMK A01 T01550146  RH  094%=      5-min Rain = 0
KWA1 242019Z 23005KT 16/15 A2997 RMK A01 T01550147  RH  095%=      5-min Rain = 0
KWA1 242020Z 23006KT 16/15 A2997 RMK A01 T01550145  RH  094%=      5-min Rain = 0
KWA1 242021Z 23006KT 15/14 A2997 RMK A01 T01540143  RH  093%=      5-min Rain = 0
KWA1 242022Z 22005KT 15/14 A2997 RMK A01 T01540142  RH  092%=      5-min Rain = 0
KWA1 242023Z 22005KT 16/14 A2997 RMK A01 T01550144  RH  093%=      5-min Rain = 0
KWA1 242024Z 22006KT 16/15 A2997 RMK A01 T01560145  RH  093%=      5-min Rain = 0
KWA1 242025Z 22006KT 16/14 A2997 RMK A01 T01560142  RH  092%=      5-min Rain = 0
KWA1 242026Z 22006KT 16/14 A2997 RMK A01 T01560143  RH  092%=      5-min Rain = 0
KWA1 242027Z 22006KT 16/14 A2998 RMK A01 T01560144  RH  092%=      5-min Rain = 0
KWA1 242028Z 21007KT 16/15 A2998 RMK A01 T01570145  RH  092%=      5-min Rain = 0
KWA1 242029Z 21007KT 16/14 A2998 RMK A01 T01560142  RH  091%=      5-min Rain = 0
KWA1 242030Z 21007KT 16/14 A2998 RMK A01 T01560140  RH  090%=      5-min Rain = 0
KWA1 242031Z 23007KT 16/14 A2998 RMK A01 T01560141  RH  091%=      5-min Rain = 0
KWA1 242032Z 21006KT 16/14 A2998 RMK A01 T01570142  RH  091%=      5-min Rain = 0
KWA1 242033Z 22006KT 16/14 A2998 RMK A01 T01570138  RH  088%=      5-min Rain = 0
KWA1 242034Z 23007KT 16/14 A2997 RMK A01 T01570137  RH  088%=      5-min Rain = 0
KWA1 242035Z 21006KT 16/14 A2997 RMK A01 T01580143  RH  091%=      5-min Rain = 0
KWA1 242036Z 21006KT 16/14 A2997 RMK A01 T01580143  RH  090%=      5-min Rain = 0
KWA1 242037Z 21005KT 16/14 A2997 RMK A01 T01580143  RH  091%=      5-min Rain = 0
KWA1 242038Z 21005KT 16/14 A2997 RMK A01 T01580141  RH  090%=      5-min Rain = 0
KWA1 242039Z 21004KT 16/14 A2996 RMK A01 T01570139  RH  089%=      5-min Rain = 0
KWA1 242040Z 21003KT 16/14 A2996 RMK A01 T01570138  RH  089%=      5-min Rain = 0
KWA1 242041Z 21003KT 16/14 A2995 RMK A01 T01570137  RH  088%=      5-min Rain = 0
KWA1 242042Z 20003KT 16/14 A2995 RMK A01 T01580139  RH  089%=      5-min Rain = 0
KWA1 242043Z 18002KT 16/14 A2995 RMK A01 T01580138  RH  088%=      5-min Rain = 0
KWA1 242044Z 18003KT 16/14 A2995 RMK A01 T01580139  RH  088%=      5-min Rain = 0
KWA1 242045Z 19003KT 16/14 A2995 RMK A01 T01590139  RH  088%=      5-min Rain = 0
KWA1 242046Z 17002KT 16/14 A2994 RMK A01 T01590136  RH  086%=      5-min Rain = 0
KWA1 242047Z 14001KT 16/14 A2994 RMK A01 T01580135  RH  086%=      5-min Rain = 0
KWA1 242048Z 16000KT 16/13 A2994 RMK A01 T01580134  RH  085%=      5-min Rain = 0
KWA1 242049Z 07002KT 16/14 A2993 RMK A01 T01590136  RH  086%=      5-min Rain = 0.01
KWA1 242050Z 06002KT 16/14 A2993 RMK A01 T01600136  RH  086%=      5-min Rain = 0
KWA1 242051Z 06002KT 16/13 A2992 RMK A01 T01600134  RH  085%=      5-min Rain = 0
KWA1 242052Z 07002KT 16/13 A2992 RMK A01 T01600134  RH  085%=      5-min Rain = 0
KWA1 242053Z 07001KT 16/14 A2992 RMK A01 T01600135  RH  086%=      5-min Rain = 0
KWA1 242054Z 07002KT 16/14 A2992 RMK A01 T01600136  RH  086%=      5-min Rain = 0
KWA1 242055Z 06002KT 16/14 A2992 RMK A01 T01610140  RH  087%=      5-min Rain = 0
KWA1 242056Z 06001KT 16/14 A2992 RMK A01 T01620138  RH  086%=      5-min Rain = 0
KWA1 242057Z 04001KT 16/14 A2992 RMK A01 T01630141  RH  087%=      5-min Rain = 0
KWA1 242058Z 02001KT 16/14 A2992 RMK A01 T01640140  RH  086%=      5-min Rain = 0
KWA1 242059Z 02003KT 16/14 A2992 RMK A01 T01630136  RH  084%=      5-min Rain = 0
KWA1 242100Z 02002KT 16/13 A2992 RMK A01 T01620134  RH  083%=      5-min Rain = 0
KWA1 242101Z 03002KT 16/13 A2991 RMK A01 T01620131  RH  082%=      5-min Rain = 0
KWA1 242102Z 02002KT 16/13 A2991 RMK A01 T01620131  RH  082%=      5-min Rain = 0
KWA1 242103Z 05003KT 16/14 A2991 RMK A01 T01620135  RH  084%=      5-min Rain = 0
KWA1 242104Z 05003KT 16/14 A2991 RMK A01 T01620138  RH  085%=      5-min Rain = 0
KWA1 242105Z 03003KT 16/14 A2991 RMK A01 T01620135  RH  084%=      5-min Rain = 0
KWA1 242106Z 05003KT 16/14 A2991 RMK A01 T01620139  RH  086%=      5-min Rain = 0
KWA1 242107Z 08004KT 16/14 A2991 RMK A01 T01630136  RH  084%=      5-min Rain = 0
KWA1 242108Z 08003KT 16/13 A2991 RMK A01 T01620132  RH  082%=      5-min Rain = 0
KWA1 242109Z 07002KT 16/14 A2991 RMK A01 T01620135  RH  084%=      5-min Rain = 0
KWA1 242110Z 08000KT 16/14 A2991 RMK A01 T01630135  RH  084%=      5-min Rain = 0
KWA1 242111Z 01001KT 16/14 A2992 RMK A01 T01640137  RH  084%=      5-min Rain = 0
KWA1 242112Z 36002KT 17/14 A2992 RMK A01 T01660135  RH  082%=      5-min Rain = 0
KWA1 242113Z 36001KT 17/14 A2992 RMK A01 T01670136  RH  082%=      5-min Rain = 0
KWA1 242114Z 01002KT 17/14 A2991 RMK A01 T01680139  RH  083%=      5-min Rain = 0
KWA1 242115Z 02002KT 17/14 A2991 RMK A01 T01670135  RH  081%=      5-min Rain = 0
KWA1 242116Z 03003KT 17/14 A2991 RMK A01 T01660140  RH  084%=      5-min Rain = 0
KWA1 242117Z 05003KT 17/14 A2991 RMK A01 T01660139  RH  084%=      5-min Rain = 0
KWA1 242118Z 05001KT 17/14 A2991 RMK A01 T01660138  RH  084%=      5-min Rain = 0
KWA1 242119Z 06001KT 17/14 A2991 RMK A01 T01660139  RH  085%=      5-min Rain = 0
KWA1 242120Z 06002KT 17/14 A2991 RMK A01 T01670140  RH  085%=      5-min Rain = 0
KWA1 242121Z 06001KT 17/14 A2991 RMK A01 T01660138  RH  083%=      5-min Rain = 0
KWA1 242122Z 12000KT 17/14 A2991 RMK A01 T01650135  RH  082%=      5-min Rain = 0
KWA1 242123Z 14001KT 17/14 A2991 RMK A01 T01650136  RH  083%=      5-min Rain = 0
KWA1 242124Z 18001KT 17/14 A2991 RMK A01 T01660136  RH  082%=      5-min Rain = 0
KWA1 242125Z 16001KT 17/13 A2991 RMK A01 T01660132  RH  081%=      5-min Rain = 0
KWA1 242126Z 18001KT 17/14 A2991 RMK A01 T01660138  RH  083%=      5-min Rain = 0
KWA1 242127Z 17002KT 17/14 A2991 RMK A01 T01670140  RH  084%=      5-min Rain = 0
KWA1 242128Z 15002KT 17/14 A2991 RMK A01 T01670139  RH  084%=      5-min Rain = 0
KWA1 242129Z 13001KT 17/14 A2991 RMK A01 T01670139  RH  083%=      5-min Rain = 0
KWA1 242130Z 14000KT 17/14 A2991 RMK A01 T01670136  RH  082%=      5-min Rain = 0
KWA1 242131Z 17000KT 17/14 A299 RMK A01 T01670136  RH  082%=      5-min Rain = 0
KWA1 242132Z 10000KT 17/14 A299 RMK A01 T01680138  RH  082%=      5-min Rain = 0
KWA1 242133Z 07001KT 17/14 A299 RMK A01 T01690139  RH  082%=      5-min Rain = 0
KWA1 242134Z 04003KT 17/14 A299 RMK A01 T01700141  RH  083%=      5-min Rain = 0
KWA1 242135Z 04003KT 17/14 A2989 RMK A01 T01690139  RH  082%=      5-min Rain = 0
KWA1 242136Z 07003KT 17/14 A2989 RMK A01 T01680143  RH  085%=      5-min Rain = 0
KWA1 242137Z 07004KT 17/15 A2989 RMK A01 T01690146  RH  086%=      5-min Rain = 0
KWA1 242138Z 08004KT 17/14 A2988 RMK A01 T01690142  RH  084%=      5-min Rain = 0
KWA1 242139Z 08003KT 17/14 A2988 RMK A01 T01680141  RH  084%=      5-min Rain = 0
KWA1 242140Z 07005KT 17/14 A2988 RMK A01 T01680141  RH  084%=      5-min Rain = 0
KWA1 242141Z 07005KT 17/14 A2988 RMK A01 T01680138  RH  083%=      5-min Rain = 0
KWA1 242142Z 07004KT 17/14 A2988 RMK A01 T01670138  RH  083%=      5-min Rain = 0
KWA1 242143Z 07006KT 17/14 A2988 RMK A01 T01670139  RH  084%=      5-min Rain = 0
KWA1 242144Z 06005KT 17/14 A2988 RMK A01 T01690143  RH  085%=      5-min Rain = 0
KWA1 242145Z 04005KT 17/14 A2988 RMK A01 T01690141  RH  084%=      5-min Rain = 0
KWA1 242146Z 06005KT 17/14 A2988 RMK A01 T01700142  RH  083%=      5-min Rain = 0
KWA1 242147Z 06005KT 17/15 A2988 RMK A01 T01720146  RH  085%=      5-min Rain = 0
KWA1 242148Z 05003KT 17/14 A2988 RMK A01 T01720141  RH  082%=      5-min Rain = 0
KWA1 242149Z 07004KT 17/14 A2988 RMK A01 T01720143  RH  083%=      5-min Rain = 0
KWA1 242150Z 08003KT 17/14 A2988 RMK A01 T01720137  RH  080%=      5-min Rain = 0
KWA1 242151Z 06003KT 17/14 A2988 RMK A01 T01710137  RH  080%=      5-min Rain = 0
KWA1 242152Z 03003KT 17/15 A2988 RMK A01 T01730145  RH  084%=      5-min Rain = 0
KWA1 242153Z 03003KT 18/14 A2988 RMK A01 T01750142  RH  081%=      5-min Rain = 0
KWA1 242154Z 08003KT 17/14 A2988 RMK A01 T01740136  RH  078%=      5-min Rain = 0
KWA1 242155Z 09004KT 17/14 A2988 RMK A01 T01740141  RH  081%=      5-min Rain = 0
KWA1 242156Z 07005KT 18/14 A2988 RMK A01 T01750139  RH  080%=      5-min Rain = 0
KWA1 242157Z 09004KT 18/14 A2988 RMK A01 T01750135  RH  077%=      5-min Rain = 0
KWA1 242158Z 08003KT 17/13 A2987 RMK A01 T01730130  RH  076%=      5-min Rain = 0
KWA1 242159Z 08004KT 17/14 A2987 RMK A01 T01730135  RH  079%=      5-min Rain = 0
KWA1 242200Z 07004KT 17/13 A2987 RMK A01 T01730134  RH  078%=      5-min Rain = 0
KWA1 242201Z 06004KT 17/14 A2987 RMK A01 T01730137  RH  079%=      5-min Rain = 0
KWA1 242202Z 06005KT 17/14 A2987 RMK A01 T01730136  RH  079%=      5-min Rain = 0
KWA1 242203Z 07005KT 17/14 A2987 RMK A01 T01720136  RH  079%=      5-min Rain = 0
KWA1 242204Z 06005KT 17/14 A2987 RMK A01 T01740141  RH  081%=      5-min Rain = 0
KWA1 242205Z 07005KT 18/14 A2987 RMK A01 T01750142  RH  081%=      5-min Rain = 0
KWA1 242206Z 05005KT 18/15 A2987 RMK A01 T01760145  RH  082%=      5-min Rain = 0
KWA1 242207Z 05007KT 18/14 A2987 RMK A01 T01760140  RH  079%=      5-min Rain = 0
KWA1 242208Z 07006KT 17/14 A2987 RMK A01 T01740137  RH  079%=      5-min Rain = 0
KWA1 242209Z 06006KT 17/13 A2987 RMK A01 T01720134  RH  078%=      5-min Rain = 0
KWA1 242210Z 06005KT 17/14 A2987 RMK A01 T01710136  RH  080%=      5-min Rain = 0
KWA1 242211Z 04004KT 17/14 A2987 RMK A01 T01710136  RH  080%=      5-min Rain = 0
KWA1 242212Z 03005KT 17/14 A2987 RMK A01 T01710137  RH  081%=      5-min Rain = 0
KWA1 242213Z 02005KT 17/14 A2987 RMK A01 T01710135  RH  079%=      5-min Rain = 0
KWA1 242214Z 02007KT 17/14 A2987 RMK A01 T01710135  RH  079%=      5-min Rain = 0
KWA1 242215Z 03006KT 17/13 A2987 RMK A01 T01700130  RH  077%=      5-min Rain = 0
KWA1 242216Z 03006KT 17/13 A2987 RMK A01 T01700133  RH  079%=      5-min Rain = 0
KWA1 242217Z 02006KT 17/13 A2987 RMK A01 T01700133  RH  079%=      5-min Rain = 0
KWA1 242218Z 02005KT 17/13 A2987 RMK A01 T01700133  RH  078%=      5-min Rain = 0
KWA1 242219Z 02005KT 17/14 A2987 RMK A01 T01700136  RH  080%=      5-min Rain = 0
KWA1 242220Z 03003KT 17/13 A2987 RMK A01 T01710129  RH  076%=      5-min Rain = 0
KWA1 242221Z 02004KT 17/14 A2987 RMK A01 T01710135  RH  080%=      5-min Rain = 0
KWA1 242222Z 03004KT 17/14 A2987 RMK A01 T01720135  RH  079%=      5-min Rain = 0
KWA1 242223Z 04005KT 17/14 A2987 RMK A01 T01720141  RH  082%=      5-min Rain = 0
KWA1 242224Z 04004KT 17/13 A2987 RMK A01 T01720134  RH  078%=      5-min Rain = 0
KWA1 242225Z 03005KT 17/14 A2987 RMK A01 T01720141  RH  082%=      5-min Rain = 0
KWA1 242226Z 01005KT 17/13 A2987 RMK A01 T01720134  RH  078%=      5-min Rain = 0
KWA1 242227Z 00004KT 17/13 A2988 RMK A01 T01720130  RH  076%=      5-min Rain = 0
KWA1 242228Z 02004KT 17/13 A2988 RMK A01 T01710131  RH  077%=      5-min Rain = 0
KWA1 242229Z 03002KT 17/13 A2988 RMK A01 T01710129  RH  077%=      5-min Rain = 0
KWA1 242230Z 36003KT 17/13 A2988 RMK A01 T01710132  RH  078%=      5-min Rain = 0
KWA1 242231Z 00002KT 17/13 A2988 RMK A01 T01710134  RH  079%=      5-min Rain = 0
KWA1 242232Z 01004KT 17/14 A2988 RMK A01 T01730135  RH  079%=      5-min Rain = 0
KWA1 242233Z 02004KT 17/14 A2988 RMK A01 T01740140  RH  080%=      5-min Rain = 0
KWA1 242234Z 04003KT 18/14 A2988 RMK A01 T01760139  RH  079%=      5-min Rain = 0
KWA1 242235Z 06002KT 18/14 A2988 RMK A01 T01770137  RH  077%=      5-min Rain = 0
KWA1 242236Z 06003KT 18/14 A2988 RMK A01 T01770136  RH  077%=      5-min Rain = 0
KWA1 242237Z 05002KT 18/13 A2988 RMK A01 T01770133  RH  076%=      5-min Rain = 0
KWA1 242238Z 04004KT 18/13 A2988 RMK A01 T01760134  RH  076%=      5-min Rain = 0
KWA1 242239Z 04003KT 18/13 A2988 RMK A01 T01760133  RH  076%=      5-min Rain = 0
KWA1 242240Z 03002KT 18/13 A2988 RMK A01 T01750131  RH  075%=      5-min Rain = 0
KWA1 242241Z 03002KT 17/13 A2988 RMK A01 T01740132  RH  076%=      5-min Rain = 0
KWA1 242242Z 02003KT 17/13 A2989 RMK A01 T01740133  RH  077%=      5-min Rain = 0
KWA1 242243Z 02003KT 17/14 A2989 RMK A01 T01740135  RH  078%=      5-min Rain = 0
KWA1 242244Z 02003KT 17/14 A2989 RMK A01 T01740138  RH  079%=      5-min Rain = 0
KWA1 242245Z 03003KT 17/14 A2989 RMK A01 T01740137  RH  079%=      5-min Rain = 0
KWA1 242246Z 04003KT 18/14 A2989 RMK A01 T01750139  RH  080%=      5-min Rain = 0
KWA1 242247Z 03003KT 17/14 A2989 RMK A01 T01740138  RH  079%=      5-min Rain = 0
KWA1 242248Z 04002KT 17/14 A2989 RMK A01 T01730135  RH  078%=      5-min Rain = 0
KWA1 242249Z 02002KT 17/14 A2989 RMK A01 T01730138  RH  080%=      5-min Rain = 0
KWA1 242250Z 34004KT 17/14 A2989 RMK A01 T01740139  RH  080%=      5-min Rain = 0
KWA1 242251Z 34005KT 17/14 A2989 RMK A01 T01740135  RH  078%=      5-min Rain = 0
KWA1 242252Z 33005KT 17/13 A2989 RMK A01 T01740129  RH  075%=      5-min Rain = 0
KWA1 242253Z 34004KT 17/13 A2989 RMK A01 T01740134  RH  077%=      5-min Rain = 0
KWA1 242254Z 34003KT 17/13 A2989 RMK A01 T01740129  RH  075%=      5-min Rain = 0
KWA1 242255Z 35003KT 17/13 A2989 RMK A01 T01740132  RH  077%=      5-min Rain = 0
KWA1 242256Z 32004KT 17/13 A2989 RMK A01 T01740134  RH  078%=      5-min Rain = 0
KWA1 242257Z 34005KT 17/14 A2989 RMK A01 T01740138  RH  079%=      5-min Rain = 0
KWA1 242258Z 36006KT 18/14 A2989 RMK A01 T01750141  RH  081%=      5-min Rain = 0
KWA1 242259Z 35005KT 18/14 A2989 RMK A01 T01760139  RH  079%=      5-min Rain = 0
KWA1 242300Z 36004KT 18/14 A2989 RMK A01 T01750135  RH  077%=      5-min Rain = 0
KWA1 242301Z 00004KT 18/14 A2989 RMK A01 T01750135  RH  077%=      5-min Rain = 0
KWA1 242302Z 36005KT 17/14 A2989 RMK A01 T01740135  RH  078%=      5-min Rain = 0
KWA1 242303Z 35005KT 17/14 A2989 RMK A01 T01740137  RH  079%=      5-min Rain = 0
KWA1 242304Z 00004KT 17/14 A2989 RMK A01 T01740136  RH  078%=      5-min Rain = 0
KWA1 242305Z 35005KT 18/14 A2989 RMK A01 T01750143  RH  082%=      5-min Rain = 0
KWA1 242306Z 34006KT 18/14 A2989 RMK A01 T01760144  RH  081%=      5-min Rain = 0
KWA1 242307Z 36006KT 18/14 A2989 RMK A01 T01770141  RH  080%=      5-min Rain = 0
KWA1 242308Z 01004KT 18/13 A2989 RMK A01 T01760134  RH  076%=      5-min Rain = 0
KWA1 242309Z 01003KT 18/14 A2989 RMK A01 T01750138  RH  079%=      5-min Rain = 0
KWA1 242310Z 02005KT 18/14 A2989 RMK A01 T01760142  RH  080%=      5-min Rain = 0
KWA1 242311Z 02004KT 18/14 A2989 RMK A01 T01760136  RH  078%=      5-min Rain = 0
KWA1 242312Z 02005KT 18/14 A2989 RMK A01 T01750142  RH  081%=      5-min Rain = 0
KWA1 242313Z 00003KT 18/14 A2989 RMK A01 T01750138  RH  079%=      5-min Rain = 0
KWA1 242314Z 36002KT 18/14 A2989 RMK A01 T01750139  RH  079%=      5-min Rain = 0
KWA1 242315Z 03001KT 18/14 A2989 RMK A01 T01760141  RH  080%=      5-min Rain = 0
KWA1 242316Z 35004KT 18/14 A2989 RMK A01 T01760141  RH  079%=      5-min Rain = 0
KWA1 242317Z 33004KT 18/14 A2989 RMK A01 T01770136  RH  077%=      5-min Rain = 0
KWA1 242318Z 35004KT 18/14 A2989 RMK A01 T01760135  RH  077%=      5-min Rain = 0
KWA1 242319Z 01003KT 18/13 A2989 RMK A01 T01760133  RH  076%=      5-min Rain = 0
KWA1 242320Z 01004KT 18/14 A2989 RMK A01 T01760135  RH  076%=      5-min Rain = 0
KWA1 242321Z 01004KT 18/13 A299 RMK A01 T01760127  RH  073%=      5-min Rain = 0
KWA1 242322Z 36003KT 18/13 A299 RMK A01 T01760129  RH  074%=      5-min Rain = 0
KWA1 242323Z 34003KT 18/13 A299 RMK A01 T01760131  RH  075%=      5-min Rain = 0
KWA1 242324Z 32004KT 18/13 A299 RMK A01 T01750131  RH  075%=      5-min Rain = 0
KWA1 242325Z 32005KT 18/14 A299 RMK A01 T01750135  RH  077%=      5-min Rain = 0
KWA1 242326Z 33003KT 18/13 A299 RMK A01 T01760134  RH  076%=      5-min Rain = 0
KWA1 242327Z 31004KT 18/14 A299 RMK A01 T01770138  RH  078%=      5-min Rain = 0
KWA1 242328Z 32005KT 18/14 A299 RMK A01 T01790141  RH  078%=      5-min Rain = 0
KWA1 242329Z 34004KT 18/13 A299 RMK A01 T01790133  RH  074%=      5-min Rain = 0
KWA1 242330Z 35004KT 18/14 A299 RMK A01 T01790135  RH  075%=      5-min Rain = 0
KWA1 242331Z 34004KT 18/14 A299 RMK A01 T01790136  RH  076%=      5-min Rain = 0
KWA1 242332Z 33004KT 18/14 A299 RMK A01 T01800136  RH  075%=      5-min Rain = 0
KWA1 242333Z 35003KT 18/13 A299 RMK A01 T01800134  RH  075%=      5-min Rain = 0
KWA1 242334Z 34003KT 18/13 A299 RMK A01 T01800134  RH  075%=      5-min Rain = 0
KWA1 242335Z 35004KT 18/14 A299 RMK A01 T01790136  RH  076%=      5-min Rain = 0
KWA1 242336Z 01004KT 18/13 A299 RMK A01 T01790134  RH  075%=      5-min Rain = 0
KWA1 242337Z 35006KT 18/14 A299 RMK A01 T01780137  RH  077%=      5-min Rain = 0
KWA1 242338Z 35006KT 18/13 A299 RMK A01 T01780133  RH  075%=      5-min Rain = 0
KWA1 242339Z 34006KT 18/14 A299 RMK A01 T01770136  RH  077%=      5-min Rain = 0
KWA1 242340Z 34006KT 18/14 A299 RMK A01 T01780140  RH  078%=      5-min Rain = 0
KWA1 242341Z 33005KT 18/14 A299 RMK A01 T01770137  RH  077%=      5-min Rain = 0
KWA1 242342Z 33005KT 18/14 A299 RMK A01 T01780141  RH  079%=      5-min Rain = 0
KWA1 242343Z 35006KT 18/14 A299 RMK A01 T01770138  RH  078%=      5-min Rain = 0
KWA1 242344Z 35007KT 18/14 A299 RMK A01 T01770139  RH  078%=      5-min Rain = 0
KWA1 242345Z 35007KT 18/14 A299 RMK A01 T01770137  RH  078%=      5-min Rain = 0
KWA1 242346Z 00005KT 18/14 A299 RMK A01 T01760135  RH  077%=      5-min Rain = 0
KWA1 242347Z 00005KT 18/14 A299 RMK A01 T01750135  RH  077%=      5-min Rain = 0
KWA1 242348Z 00006KT 18/14 A299 RMK A01 T01760137  RH  078%=      5-min Rain = 0
KWA1 242349Z 35006KT 18/14 A299 RMK A01 T01760137  RH  078%=      5-min Rain = 0
KWA1 242350Z 35006KT 18/14 A299 RMK A01 T01750140  RH  080%=      5-min Rain = 0
KWA1 242351Z 34005KT 18/14 A299 RMK A01 T01760139  RH  079%=      5-min Rain = 0
KWA1 242352Z 34006KT 18/14 A2989 RMK A01 T01760139  RH  079%=      5-min Rain = 0
KWA1 242353Z 34005KT 18/14 A2989 RMK A01 T01760139  RH  079%=      5-min Rain = 0
KWA1 242354Z 34006KT 18/14 A2989 RMK A01 T01750138  RH  079%=      5-min Rain = 0
KWA1 242355Z 34006KT 18/14 A2989 RMK A01 T01760138  RH  078%=      5-min Rain = 0
KWA1 242356Z 34006KT 18/14 A2989 RMK A01 T01750135  RH  077%=      5-min Rain = 0
KWA1 242357Z 35006KT 18/14 A2989 RMK A01 T01750135  RH  078%=      5-min Rain = 0
KWA1 242358Z 36005KT 17/14 A2989 RMK A01 T01740138  RH  079%=      5-min Rain = 0
KWA1 242359Z 00005KT 18/14 A2989 RMK A01 T01750139  RH  080%=      5-min Rain = 0
KWA1 250000Z 00005KT 18/14 A2989 RMK A01 T01750139  RH  080%=      5-min Rain = 0
KWA1 250001Z 36005KT 17/14 A2989 RMK A01 T01740138  RH  079%=      5-min Rain = 0
KWA1 250002Z 35005KT 18/14 A2989 RMK A01 T01750139  RH  079%=      5-min Rain = 0
KWA1 250003Z 35005KT 18/14 A2989 RMK A01 T01750143  RH  081%=      5-min Rain = 0
KWA1 250004Z 35005KT 18/14 A2989 RMK A01 T01750140  RH  080%=      5-min Rain = 0
KWA1 250005Z 34005KT 17/14 A2989 RMK A01 T01740135  RH  078%=      5-min Rain = 0
KWA1 250006Z 34004KT 17/13 A2989 RMK A01 T01740134  RH  077%=      5-min Rain = 0
KWA1 250007Z 34004KT 17/14 A2989 RMK A01 T01740136  RH  078%=      5-min Rain = 0
KWA1 250008Z 33003KT 17/14 A2989 RMK A01 T01740141  RH  081%=      5-min Rain = 0
KWA1 250009Z 34003KT 17/14 A2989 RMK A01 T01740141  RH  081%=      5-min Rain = 0
KWA1 250010Z 34004KT 17/14 A2989 RMK A01 T01740137  RH  079%=      5-min Rain = 0
KWA1 250011Z 35003KT 17/14 A2989 RMK A01 T01730135  RH  078%=      5-min Rain = 0
KWA1 250012Z 34003KT 17/14 A2989 RMK A01 T01730137  RH  079%=      5-min Rain = 0
KWA1 250013Z 33003KT 17/14 A2989 RMK A01 T01730141  RH  081%=      5-min Rain = 0
KWA1 250014Z 33004KT 17/14 A2989 RMK A01 T01730142  RH  082%=      5-min Rain = 0
KWA1 250015Z 33003KT 17/14 A2989 RMK A01 T01730138  RH  080%=      5-min Rain = 0
KWA1 250016Z 35003KT 17/14 A2989 RMK A01 T01730141  RH  081%=      5-min Rain = 0
KWA1 250017Z 35003KT 17/14 A2989 RMK A01 T01730140  RH  080%=      5-min Rain = 0
KWA1 250018Z 34003KT 17/14 A2989 RMK A01 T01730137  RH  079%=      5-min Rain = 0
KWA1 250019Z 33003KT 17/14 A2989 RMK A01 T01730137  RH  079%=      5-min Rain = 0
KWA1 250020Z 35002KT 17/14 A299 RMK A01 T01730136  RH  079%=      5-min Rain = 0
KWA1 250021Z 33003KT 17/14 A299 RMK A01 T01740142  RH  081%=      5-min Rain = 0
KWA1 250022Z 33002KT 17/14 A299 RMK A01 T01740141  RH  081%=      5-min Rain = 0
KWA1 250023Z 32002KT 17/14 A2989 RMK A01 T01740143  RH  082%=      5-min Rain = 0
KWA1 250024Z 33003KT 17/14 A2989 RMK A01 T01740140  RH  080%=      5-min Rain = 0
KWA1 250025Z 33003KT 17/14 A2989 RMK A01 T01740137  RH  079%=      5-min Rain = 0
KWA1 250026Z 33003KT 17/14 A299 RMK A01 T01740137  RH  079%=      5-min Rain = 0
KWA1 250027Z 33002KT 17/14 A299 RMK A01 T01740140  RH  080%=      5-min Rain = 0
KWA1 250028Z 33002KT 17/14 A299 RMK A01 T01730140  RH  081%=      5-min Rain = 0
KWA1 250029Z 32002KT 17/14 A299 RMK A01 T01730136  RH  079%=      5-min Rain = 0
KWA1 250030Z 30001KT 17/14 A299 RMK A01 T01730136  RH  079%=      5-min Rain = 0
KWA1 250031Z 28002KT 17/14 A299 RMK A01 T01730136  RH  079%=      5-min Rain = 0
KWA1 250032Z 26002KT 17/14 A299 RMK A01 T01730136  RH  079%=      5-min Rain = 0
KWA1 250033Z 26002KT 17/14 A299 RMK A01 T01720138  RH  080%=      5-min Rain = 0
KWA1 250034Z 25003KT 17/14 A299 RMK A01 T01720138  RH  080%=      5-min Rain = 0
KWA1 250035Z 25003KT 17/14 A299 RMK A01 T01720137  RH  080%=      5-min Rain = 0
KWA1 250036Z 25003KT 17/14 A299 RMK A01 T01720139  RH  081%=      5-min Rain = 0
KWA1 250037Z 25004KT 17/14 A299 RMK A01 T01720141  RH  082%=      5-min Rain = 0
KWA1 250038Z 25003KT 17/14 A299 RMK A01 T01720142  RH  082%=      5-min Rain = 0
KWA1 250039Z 25003KT 17/14 A299 RMK A01 T01720142  RH  082%=      5-min Rain = 0
KWA1 250040Z 25003KT 17/14 A299 RMK A01 T01720141  RH  082%=      5-min Rain = 0
KWA1 250041Z 25004KT 17/14 A299 RMK A01 T01720141  RH  082%=      5-min Rain = 0
KWA1 250042Z 25004KT 17/14 A299 RMK A01 T01720138  RH  081%=      5-min Rain = 0
KWA1 250043Z 26003KT 17/14 A299 RMK A01 T01720138  RH  081%=      5-min Rain = 0
KWA1 250044Z 27003KT 17/14 A299 RMK A01 T01710138  RH  081%=      5-min Rain = 0
KWA1 250045Z 27003KT 17/14 A299 RMK A01 T01720140  RH  082%=      5-min Rain = 0
KWA1 250046Z 26003KT 17/14 A299 RMK A01 T01710143  RH  084%=      5-min Rain = 0
KWA1 250047Z 27004KT 17/14 A299 RMK A01 T01710143  RH  083%=      5-min Rain = 0
KWA1 250048Z 27004KT 17/14 A299 RMK A01 T01720141  RH  082%=      5-min Rain = 0
KWA1 250049Z 27004KT 17/14 A299 RMK A01 T01710140  RH  082%=      5-min Rain = 0
KWA1 250050Z 27004KT 17/14 A299 RMK A01 T01710143  RH  083%=      5-min Rain = 0
KWA1 250051Z 28004KT 17/14 A299 RMK A01 T01710143  RH  083%=      5-min Rain = 0
KWA1 250052Z 28004KT 17/14 A299 RMK A01 T01710141  RH  083%=      5-min Rain = 0
KWA1 250053Z 27004KT 17/14 A299 RMK A01 T01710140  RH  082%=      5-min Rain = 0
KWA1 250054Z 28003KT 17/14 A299 RMK A01 T01700141  RH  083%=      5-min Rain = 0
KWA1 250055Z 28004KT 17/14 A299 RMK A01 T01700144  RH  084%=      5-min Rain = 0
KWA1 250056Z 28003KT 17/14 A299 RMK A01 T01700144  RH  084%=      5-min Rain = 0
KWA1 250057Z 28004KT 17/14 A299 RMK A01 T01700143  RH  084%=      5-min Rain = 0
KWA1 250058Z 28004KT 17/14 A299 RMK A01 T01700142  RH  084%=      5-min Rain = 0
KWA1 250059Z 28004KT 17/14 A299 RMK A01 T01700142  RH  084%=      5-min Rain = 0
KWA1 250100Z 29005KT 17/15 A299 RMK A01 T01700145  RH  085%=      5-min Rain = 0
KWA1 250101Z 29005KT 17/14 A299 RMK A01 T01700143  RH  084%=      5-min Rain = 0
KWA1 250102Z 29005KT 17/14 A299 RMK A01 T01690142  RH  084%=      5-min Rain = 0
KWA1 250103Z 29005KT 17/15 A299 RMK A01 T01700145  RH  085%=      5-min Rain = 0
KWA1 250104Z 29005KT 17/15 A299 RMK A01 T01690145  RH  086%=      5-min Rain = 0
KWA1 250105Z 28006KT 17/15 A299 RMK A01 T01690145  RH  086%=      5-min Rain = 0
KWA1 250106Z 28006KT 17/15 A299 RMK A01 T01690146  RH  086%=      5-min Rain = 0
KWA1 250107Z 29006KT 17/15 A299 RMK A01 T01690147  RH  087%=      5-min Rain = 0
KWA1 250108Z 29005KT 17/15 A299 RMK A01 T01680146  RH  087%=      5-min Rain = 0
KWA1 250109Z 29006KT 17/15 A299 RMK A01 T01680146  RH  087%=      5-min Rain = 0
KWA1 250110Z 28006KT 17/15 A299 RMK A01 T01670146  RH  087%=      5-min Rain = 0
KWA1 250111Z 28006KT 17/15 A299 RMK A01 T01670146  RH  088%=      5-min Rain = 0
KWA1 250112Z 28006KT 17/15 A299 RMK A01 T01670147  RH  088%=      5-min Rain = 0
KWA1 250113Z 28005KT 17/15 A299 RMK A01 T01660147  RH  088%=      5-min Rain = 0
KWA1 250114Z 28005KT 17/15 A299 RMK A01 T01650147  RH  089%=      5-min Rain = 0
KWA1 250115Z 28005KT 17/15 A299 RMK A01 T01650148  RH  089%=      5-min Rain = 0
KWA1 250116Z 28006KT 17/15 A299 RMK A01 T01650147  RH  089%=      5-min Rain = 0
KWA1 250117Z 28006KT 17/15 A299 RMK A01 T01650147  RH  089%=      5-min Rain = 0
KWA1 250118Z 28006KT 16/15 A299 RMK A01 T01640147  RH  089%=      5-min Rain = 0
KWA1 250119Z 28006KT 16/15 A299 RMK A01 T01640146  RH  089%=      5-min Rain = 0
KWA1 250120Z 28005KT 16/15 A299 RMK A01 T01640147  RH  090%=      5-min Rain = 0
KWA1 250121Z 28005KT 16/15 A299 RMK A01 T01640148  RH  090%=      5-min Rain = 0
KWA1 250122Z 28005KT 16/15 A299 RMK A01 T01630147  RH  090%=      5-min Rain = 0
KWA1 250123Z 28005KT 16/15 A299 RMK A01 T01630146  RH  090%=      5-min Rain = 0
KWA1 250124Z 27005KT 16/15 A299 RMK A01 T01630146  RH  089%=      5-min Rain = 0
KWA1 250125Z 27005KT 16/15 A299 RMK A01 T01630146  RH  090%=      5-min Rain = 0
KWA1 250126Z 27005KT 16/15 A299 RMK A01 T01630146  RH  090%=      5-min Rain = 0
KWA1 250127Z 27005KT 16/15 A299 RMK A01 T01630146  RH  090%=      5-min Rain = 0
KWA1 250128Z 27005KT 16/15 A299 RMK A01 T01630146  RH  090%=      5-min Rain = 0
KWA1 250129Z 28004KT 16/15 A299 RMK A01 T01630146  RH  090%=      5-min Rain = 0
KWA1 250130Z 28005KT 16/15 A2991 RMK A01 T01630146  RH  090%=      5-min Rain = 0
KWA1 250131Z 28006KT 16/15 A2991 RMK A01 T01630147  RH  090%=      5-min Rain = 0
KWA1 250132Z 29006KT 16/15 A2991 RMK A01 T01630147  RH  091%=      5-min Rain = 0
KWA1 250133Z 29006KT 16/15 A2991 RMK A01 T01630148  RH  091%=      5-min Rain = 0
KWA1 250134Z 29006KT 16/15 A2991 RMK A01 T01620148  RH  091%=      5-min Rain = 0
KWA1 250135Z 28006KT 16/15 A2991 RMK A01 T01620148  RH  091%=      5-min Rain = 0
KWA1 250136Z 28006KT 16/15 A2991 RMK A01 T01620148  RH  092%=      5-min Rain = 0
KWA1 250137Z 28006KT 16/15 A2991 RMK A01 T01610148  RH  092%=      5-min Rain = 0
KWA1 250138Z 28006KT 16/15 A2991 RMK A01 T01610147  RH  091%=      5-min Rain = 0
KWA1 250139Z 28006KT 16/15 A2991 RMK A01 T01610147  RH  091%=      5-min Rain = 0
KWA1 250140Z 28006KT 16/15 A2991 RMK A01 T01610147  RH  092%=      5-min Rain = 0
KWA1 250141Z 28006KT 16/15 A2991 RMK A01 T01600146  RH  091%=      5-min Rain = 0
KWA1 250142Z 28006KT 16/15 A2991 RMK A01 T01600147  RH  091%=      5-min Rain = 0
KWA1 250143Z 28005KT 16/15 A2991 RMK A01 T01610146  RH  091%=      5-min Rain = 0
KWA1 250144Z 28005KT 16/15 A2991 RMK A01 T01610147  RH  091%=      5-min Rain = 0
KWA1 250145Z 27006KT 16/15 A2991 RMK A01 T01600146  RH  091%=      5-min Rain = 0
KWA1 250146Z 27005KT 16/15 A2991 RMK A01 T01600146  RH  091%=      5-min Rain = 0
KWA1 250147Z 27006KT 16/15 A2991 RMK A01 T01610146  RH  091%=      5-min Rain = 0
KWA1 250148Z 27006KT 16/15 A2991 RMK A01 T01600145  RH  091%=      5-min Rain = 0
KWA1 250149Z 27006KT 16/15 A2991 RMK A01 T01600145  RH  091%=      5-min Rain = 0
KWA1 250150Z 27006KT 16/15 A2991 RMK A01 T01600145  RH  091%=      5-min Rain = 0
KWA1 250151Z 27006KT 16/15 A2991 RMK A01 T01600146  RH  091%=      5-min Rain = 0
KWA1 250152Z 27006KT 16/15 A2991 RMK A01 T01600145  RH  091%=      5-min Rain = 0
KWA1 250153Z 26006KT 16/15 A2991 RMK A01 T01600145  RH  091%=      5-min Rain = 0
KWA1 250154Z 26006KT 16/15 A2991 RMK A01 T01600145  RH  091%=      5-min Rain = 0
KWA1 250155Z 26006KT 16/15 A2991 RMK A01 T01600145  RH  091%=      5-min Rain = 0
KWA1 250156Z 26006KT 16/15 A2991 RMK A01 T01600145  RH  091%=      5-min Rain = 0
KWA1 250157Z 26006KT 16/15 A2991 RMK A01 T01600146  RH  091%=      5-min Rain = 0
KWA1 250158Z 25006KT 16/15 A2991 RMK A01 T01600146  RH  091%=      5-min Rain = 0
KWA1 250159Z 25006KT 16/15 A2991 RMK A01 T01600146  RH  091%=      5-min Rain = 0
KWA1 250200Z 25006KT 16/15 A2991 RMK A01 T01600146  RH  091%=      5-min Rain = 0
KWA1 250201Z 25007KT 16/15 A2991 RMK A01 T01600145  RH  091%=      5-min Rain = 0
KWA1 250202Z 25007KT 16/14 A2991 RMK A01 T01600144  RH  091%=      5-min Rain = 0
KWA1 250203Z 25007KT 16/14 A2991 RMK A01 T01590144  RH  090%=      5-min Rain = 0
KWA1 250204Z 25007KT 16/14 A2991 RMK A01 T01600144  RH  090%=      5-min Rain = 0
KWA1 250205Z 24006KT 16/15 A2991 RMK A01 T01600145  RH  090%=      5-min Rain = 0
KWA1 250206Z 24006KT 16/15 A2991 RMK A01 T01600145  RH  091%=      5-min Rain = 0
KWA1 250207Z 24006KT 16/15 A2991 RMK A01 T01610146  RH  091%=      5-min Rain = 0
KWA1 250208Z 24006KT 16/15 A2991 RMK A01 T01600146  RH  091%=      5-min Rain = 0
KWA1 250209Z 24006KT 16/15 A2991 RMK A01 T01600146  RH  091%=      5-min Rain = 0
KWA1 250210Z 24006KT 16/15 A2991 RMK A01 T01600146  RH  092%=      5-min Rain = 0
KWA1 250211Z 25006KT 16/15 A2991 RMK A01 T01590146  RH  092%=      5-min Rain = 0
KWA1 250212Z 25006KT 16/15 A2991 RMK A01 T01590146  RH  092%=      5-min Rain = 0
KWA1 250213Z 25005KT 16/15 A2991 RMK A01 T01590146  RH  092%=      5-min Rain = 0
KWA1 250214Z 25006KT 16/15 A2991 RMK A01 T01590146  RH  092%=      5-min Rain = 0
KWA1 250215Z 25006KT 16/15 A2991 RMK A01 T01590146  RH  092%=      5-min Rain = 0
KWA1 250216Z 25006KT 16/15 A2991 RMK A01 T01590146  RH  092%=      5-min Rain = 0
KWA1 250217Z 25006KT 16/15 A2991 RMK A01 T01590146  RH  092%=      5-min Rain = 0
KWA1 250218Z 25006KT 16/15 A2991 RMK A01 T01590146  RH  092%=      5-min Rain = 0
KWA1 250219Z 26006KT 16/15 A2991 RMK A01 T01590146  RH  092%=      5-min Rain = 0
KWA1 250220Z 26007KT 16/15 A2991 RMK A01 T01590146  RH  092%=      5-min Rain = 0
KWA1 250221Z 26007KT 16/15 A2991 RMK A01 T01590145  RH  091%=      5-min Rain = 0
KWA1 250222Z 25007KT 16/15 A2991 RMK A01 T01590145  RH  091%=      5-min Rain = 0
KWA1 250223Z 26006KT 16/15 A2991 RMK A01 T01600145  RH  091%=      5-min Rain = 0
KWA1 250224Z 26006KT 16/15 A2991 RMK A01 T01600145  RH  091%=      5-min Rain = 0
KWA1 250225Z 26007KT 16/15 A2991 RMK A01 T01590145  RH  091%=      5-min Rain = 0
KWA1 250226Z 26006KT 16/15 A2991 RMK A01 T01600145  RH  091%=      5-min Rain = 0
KWA1 250227Z 26007KT 16/15 A2991 RMK A01 T01600145  RH  091%=      5-min Rain = 0
KWA1 250228Z 26007KT 16/15 A2991 RMK A01 T01600145  RH  091%=      5-min Rain = 0
KWA1 250229Z 26007KT 16/15 A2991 RMK A01 T01600145  RH  091%=      5-min Rain = 0
KWA1 250230Z 26007KT 16/14 A2991 RMK A01 T01590144  RH  091%=      5-min Rain = 0
KWA1 250231Z 26007KT 16/14 A2991 RMK A01 T01590144  RH  090%=      5-min Rain = 0
KWA1 250232Z 26007KT 16/14 A2991 RMK A01 T01600144  RH  090%=      5-min Rain = 0
KWA1 250233Z 26007KT 16/14 A2991 RMK A01 T01590143  RH  090%=      5-min Rain = 0
KWA1 250234Z 26006KT 16/14 A2991 RMK A01 T01600144  RH  090%=      5-min Rain = 0
KWA1 250235Z 26006KT 16/14 A2991 RMK A01 T01590144  RH  091%=      5-min Rain = 0
KWA1 250236Z 26006KT 16/14 A2991 RMK A01 T01590144  RH  091%=      5-min Rain = 0
KWA1 250237Z 26006KT 16/14 A2991 RMK A01 T01590144  RH  091%=      5-min Rain = 0
KWA1 250238Z 26006KT 16/14 A2991 RMK A01 T01580143  RH  091%=      5-min Rain = 0
KWA1 250239Z 26006KT 16/14 A2991 RMK A01 T01590143  RH  090%=      5-min Rain = 0
KWA1 250240Z 26006KT 16/14 A2991 RMK A01 T01580143  RH  090%=      5-min Rain = 0
KWA1 250241Z 26006KT 16/14 A2991 RMK A01 T01580143  RH  090%=      5-min Rain = 0
KWA1 250242Z 26006KT 16/14 A2992 RMK A01 T01590143  RH  090%=      5-min Rain = 0
KWA1 250243Z 26007KT 16/14 A2992 RMK A01 T01580143  RH  091%=      5-min Rain = 0
KWA1 250244Z 26007KT 16/14 A2992 RMK A01 T01580143  RH  091%=      5-min Rain = 0
KWA1 250245Z 26007KT 16/14 A2992 RMK A01 T01580143  RH  091%=      5-min Rain = 0
KWA1 250246Z 27007KT 16/14 A2992 RMK A01 T01580143  RH  090%=      5-min Rain = 0
KWA1 250247Z 27006KT 16/14 A2992 RMK A01 T01580143  RH  090%=      5-min Rain = 0
KWA1 250248Z 26006KT 16/14 A2992 RMK A01 T01580142  RH  090%=      5-min Rain = 0
KWA1 250249Z 27006KT 16/14 A2992 RMK A01 T01580142  RH  090%=      5-min Rain = 0
KWA1 250250Z 27006KT 16/14 A2992 RMK A01 T01580143  RH  091%=      5-min Rain = 0
KWA1 250251Z 27007KT 16/14 A2992 RMK A01 T01580142  RH  090%=      5-min Rain = 0
KWA1 250252Z 27007KT 16/14 A2992 RMK A01 T01580142  RH  090%=      5-min Rain = 0
KWA1 250253Z 27006KT 16/14 A2992 RMK A01 T01580142  RH  090%=      5-min Rain = 0
KWA1 250254Z 27006KT 16/14 A2992 RMK A01 T01580141  RH  090%=      5-min Rain = 0
KWA1 250255Z 27006KT 16/14 A2992 RMK A01 T01580142  RH  090%=      5-min Rain = 0
KWA1 250256Z 27006KT 16/14 A2992 RMK A01 T01580142  RH  091%=      5-min Rain = 0
KWA1 250257Z 27006KT 16/14 A2992 RMK A01 T01570143  RH  091%=      5-min Rain = 0
KWA1 250258Z 26007KT 16/14 A2992 RMK A01 T01570143  RH  091%=      5-min Rain = 0
KWA1 250259Z 26007KT 16/14 A2992 RMK A01 T01570143  RH  091%=      5-min Rain = 0
KWA1 250300Z 26006KT 16/14 A2992 RMK A01 T01560142  RH  091%=      5-min Rain = 0
KWA1 250301Z 26006KT 16/14 A2991 RMK A01 T01560142  RH  091%=      5-min Rain = 0
KWA1 250302Z 26006KT 16/14 A2992 RMK A01 T01560143  RH  092%=      5-min Rain = 0
KWA1 250303Z 26005KT 16/14 A2992 RMK A01 T01560142  RH  092%=      5-min Rain = 0
KWA1 250304Z 26005KT 16/14 A2992 RMK A01 T01560143  RH  092%=      5-min Rain = 0
KWA1 250305Z 26006KT 16/14 A2992 RMK A01 T01560143  RH  092%=      5-min Rain = 0
KWA1 250306Z 26006KT 16/14 A2992 RMK A01 T01550142  RH  092%=      5-min Rain = 0
KWA1 250307Z 26005KT 16/14 A2992 RMK A01 T01550142  RH  092%=      5-min Rain = 0
KWA1 250308Z 25005KT 16/14 A2992 RMK A01 T01550143  RH  092%=      5-min Rain = 0
KWA1 250309Z 26005KT 16/14 A2992 RMK A01 T01550143  RH  092%=      5-min Rain = 0
KWA1 250310Z 25005KT 16/14 A2992 RMK A01 T01550143  RH  093%=      5-min Rain = 0
KWA1 250311Z 25005KT 16/14 A2992 RMK A01 T01550143  RH  093%=      5-min Rain = 0
KWA1 250312Z 25006KT 16/14 A2992 RMK A01 T01550143  RH  093%=      5-min Rain = 0
KWA1 250313Z 25006KT 16/14 A2992 RMK A01 T01550143  RH  093%=      5-min Rain = 0
KWA1 250314Z 24006KT 16/14 A2992 RMK A01 T01550143  RH  093%=      5-min Rain = 0
KWA1 250315Z 23006KT 16/14 A2992 RMK A01 T01550144  RH  093%=      5-min Rain = 0
KWA1 250316Z 23007KT 15/14 A2992 RMK A01 T01540143  RH  093%=      5-min Rain = 0
KWA1 250317Z 23007KT 15/14 A2992 RMK A01 T01540143  RH  093%=      5-min Rain = 0
KWA1 250318Z 23007KT 15/14 A2992 RMK A01 T01540143  RH  094%=      5-min Rain = 0
KWA1 250319Z 23007KT 15/14 A2992 RMK A01 T01530143  RH  094%=      5-min Rain = 0
KWA1 250320Z 22007KT 15/14 A2992 RMK A01 T01530143  RH  094%=      5-min Rain = 0
KWA1 250321Z 22006KT 15/14 A2992 RMK A01 T01530143  RH  094%=      5-min Rain = 0
KWA1 250322Z 22006KT 15/14 A2992 RMK A01 T01530143  RH  094%=      5-min Rain = 0
KWA1 250323Z 21006KT 15/14 A2992 RMK A01 T01530143  RH  094%=      5-min Rain = 0
KWA1 250324Z 21006KT 15/14 A2992 RMK A01 T01520143  RH  094%=      5-min Rain = 0
KWA1 250325Z 20006KT 15/14 A2992 RMK A01 T01520143  RH  094%=      5-min Rain = 0
KWA1 250326Z 21006KT 15/14 A2991 RMK A01 T01520143  RH  094%=      5-min Rain = 0
KWA1 250327Z 20006KT 15/14 A2991 RMK A01 T01520143  RH  094%=      5-min Rain = 0
KWA1 250328Z 20005KT 15/14 A2991 RMK A01 T01520143  RH  094%=      5-min Rain = 0
KWA1 250329Z 21006KT 15/14 A2991 RMK A01 T01510142  RH  094%=      5-min Rain = 0
KWA1 250330Z 21006KT 15/14 A2991 RMK A01 T01520143  RH  094%=      5-min Rain = 0
KWA1 250331Z 21005KT 15/14 A2991 RMK A01 T01520142  RH  094%=      5-min Rain = 0
KWA1 250332Z 21005KT 15/14 A2991 RMK A01 T01520142  RH  094%=      5-min Rain = 0
KWA1 250333Z 20005KT 15/14 A2991 RMK A01 T01520142  RH  094%=      5-min Rain = 0
KWA1 250334Z 20005KT 15/14 A2991 RMK A01 T01520142  RH  094%=      5-min Rain = 0
KWA1 250335Z 20005KT 15/14 A2991 RMK A01 T01520142  RH  094%=      5-min Rain = 0
KWA1 250336Z 20005KT 15/14 A2991 RMK A01 T01520142  RH  094%=      5-min Rain = 0
KWA1 250337Z 20005KT 15/14 A2991 RMK A01 T01520142  RH  094%=      5-min Rain = 0
KWA1 250338Z 20006KT 15/14 A2991 RMK A01 T01520142  RH  094%=      5-min Rain = 0
KWA1 250339Z 20006KT 15/14 A2991 RMK A01 T01510141  RH  094%=      5-min Rain = 0
KWA1 250340Z 19006KT 15/14 A2991 RMK A01 T01510141  RH  094%=      5-min Rain = 0
KWA1 250341Z 19006KT 15/14 A2991 RMK A01 T01510141  RH  094%=      5-min Rain = 0
KWA1 250342Z 19006KT 15/14 A2991 RMK A01 T01510141  RH  093%=      5-min Rain = 0
KWA1 250343Z 19006KT 15/14 A2991 RMK A01 T01510141  RH  093%=      5-min Rain = 0
KWA1 250344Z 20006KT 15/14 A2991 RMK A01 T01510141  RH  093%=      5-min Rain = 0
KWA1 250345Z 20005KT 15/14 A2991 RMK A01 T01510141  RH  093%=      5-min Rain = 0
KWA1 250346Z 21005KT 15/14 A2991 RMK A01 T01510141  RH  093%=      5-min Rain = 0
KWA1 250347Z 22005KT 15/14 A2991 RMK A01 T01510140  RH  093%=      5-min Rain = 0
KWA1 250348Z 25005KT 15/14 A2992 RMK A01 T01510140  RH  093%=      5-min Rain = 0
KWA1 250349Z 27005KT 15/14 A2992 RMK A01 T01510140  RH  093%=      5-min Rain = 0
KWA1 250350Z 29006KT 15/14 A2992 RMK A01 T01500140  RH  094%=      5-min Rain = 0
KWA1 250351Z 29006KT 15/14 A2992 RMK A01 T01500140  RH  094%=      5-min Rain = 0
KWA1 250352Z 29006KT 15/14 A2992 RMK A01 T01500140  RH  094%=      5-min Rain = 0
KWA1 250353Z 29006KT 15/14 A2992 RMK A01 T01500140  RH  094%=      5-min Rain = 0
KWA1 250354Z 29005KT 15/14 A2992 RMK A01 T01490140  RH  094%=      5-min Rain = 0
KWA1 250355Z 30005KT 15/14 A2992 RMK A01 T01490140  RH  094%=      5-min Rain = 0
KWA1 250356Z 30005KT 15/14 A2992 RMK A01 T01480140  RH  095%=      5-min Rain = 0
KWA1 250357Z 30005KT 15/14 A2992 RMK A01 T01480140  RH  095%=      5-min Rain = 0
KWA1 250358Z 30005KT 15/14 A2992 RMK A01 T01480139  RH  095%=      5-min Rain = 0
KWA1 250359Z 31006KT 15/14 A2992 RMK A01 T01470139  RH  095%=      5-min Rain = 0
KWA1 250400Z 31006KT 15/14 A2993 RMK A01 T01470139  RH  095%=      5-min Rain = 0
KWA1 250401Z 32006KT 15/14 A2993 RMK A01 T01470139  RH  095%=      5-min Rain = 0
KWA1 250402Z 32006KT 15/14 A2993 RMK A01 T01470140  RH  096%=      5-min Rain = 0
KWA1 250403Z 32006KT 15/14 A2993 RMK A01 T01470140  RH  096%=      5-min Rain = 0
KWA1 250404Z 32005KT 15/14 A2993 RMK A01 T01470140  RH  096%=      5-min Rain = 0
KWA1 250405Z 33005KT 15/14 A2993 RMK A01 T01470140  RH  096%=      5-min Rain = 0
KWA1 250406Z 34005KT 15/14 A2993 RMK A01 T01460140  RH  096%=      5-min Rain = 0
KWA1 250407Z 34006KT 15/14 A2993 RMK A01 T01460140  RH  096%=      5-min Rain = 0
KWA1 250408Z 33006KT 15/14 A2993 RMK A01 T01450139  RH  096%=      5-min Rain = 0
KWA1 250409Z 33005KT 15/14 A2993 RMK A01 T01450139  RH  096%=      5-min Rain = 0
KWA1 250410Z 34006KT 15/14 A2993 RMK A01 T01450140  RH  096%=      5-min Rain = 0
KWA1 250411Z 33006KT 14/14 A2993 RMK A01 T01440139  RH  097%=      5-min Rain = 0
KWA1 250412Z 32005KT 15/14 A2993 RMK A01 T01450140  RH  097%=      5-min Rain = 0
KWA1 250413Z 31005KT 14/14 A2993 RMK A01 T01440140  RH  097%=      5-min Rain = 0
KWA1 250414Z 31005KT 14/14 A2993 RMK A01 T01440140  RH  097%=      5-min Rain = 0
KWA1 250415Z 30003KT 14/14 A2993 RMK A01 T01440140  RH  097%=      5-min Rain = 0
KWA1 250416Z 29003KT 14/14 A2993 RMK A01 T01440140  RH  097%=      5-min Rain = 0
KWA1 250417Z 28002KT 14/14 A2993 RMK A01 T01440139  RH  097%=      5-min Rain = 0
KWA1 250418Z 26001KT 14/14 A2993 RMK A01 T01440139  RH  097%=      5-min Rain = 0
KWA1 250419Z 21001KT 14/14 A2993 RMK A01 T01440139  RH  097%=      5-min Rain = 0
KWA1 250420Z 17001KT 14/14 A2993 RMK A01 T01440139  RH  097%=      5-min Rain = 0
KWA1 250421Z 16001KT 14/14 A2993 RMK A01 T01440138  RH  097%=      5-min Rain = 0
KWA1 250422Z 15002KT 14/14 A2993 RMK A01 T01440138  RH  097%=      5-min Rain = 0
KWA1 250423Z 14003KT 14/14 A2993 RMK A01 T01430138  RH  097%=      5-min Rain = 0
KWA1 250424Z 14003KT 14/14 A2993 RMK A01 T01430138  RH  097%=      5-min Rain = 0
KWA1 250425Z 14003KT 14/14 A2993 RMK A01 T01430138  RH  097%=      5-min Rain = 0
KWA1 250426Z 13003KT 14/14 A2992 RMK A01 T01430138  RH  097%=      5-min Rain = 0
KWA1 250427Z 13004KT 14/14 A2992 RMK A01 T01420138  RH  097%=      5-min Rain = 0
KWA1 250428Z 13004KT 14/14 A2992 RMK A01 T01420138  RH  097%=      5-min Rain = 0
KWA1 250429Z 13004KT 14/14 A2992 RMK A01 T01420138  RH  097%=      5-min Rain = 0
KWA1 250430Z 12004KT 14/14 A2992 RMK A01 T01420137  RH  097%=      5-min Rain = 0
KWA1 250431Z 12004KT 14/14 A2992 RMK A01 T01410137  RH  097%=      5-min Rain = 0
KWA1 250432Z 12004KT 14/14 A2992 RMK A01 T01410137  RH  097%=      5-min Rain = 0
KWA1 250433Z 14004KT 14/14 A2992 RMK A01 T01410137  RH  098%=      5-min Rain = 0
KWA1 250434Z 17003KT 14/14 A2992 RMK A01 T01410137  RH  098%=      5-min Rain = 0
KWA1 250435Z 21003KT 14/14 A2993 RMK A01 T01410137  RH  098%=      5-min Rain = 0
KWA1 250436Z 22003KT 14/14 A2993 RMK A01 T01410137  RH  098%=      5-min Rain = 0
KWA1 250437Z 20004KT 14/14 A2993 RMK A01 T01410137  RH  098%=      5-min Rain = 0
KWA1 250438Z 19004KT 14/14 A2992 RMK A01 T01400137  RH  098%=      5-min Rain = 0
KWA1 250439Z 18004KT 14/14 A2992 RMK A01 T01400136  RH  098%=      5-min Rain = 0
KWA1 250440Z 17005KT 14/14 A2992 RMK A01 T01390136  RH  098%=      5-min Rain = 0
KWA1 250441Z 19005KT 14/14 A2992 RMK A01 T01390136  RH  098%=      5-min Rain = 0
KWA1 250442Z 20006KT 14/14 A2992 RMK A01 T01390136  RH  098%=      5-min Rain = 0
KWA1 250443Z 19006KT 14/14 A2992 RMK A01 T01390136  RH  098%=      5-min Rain = 0
KWA1 250444Z 19006KT 14/14 A2992 RMK A01 T01390136  RH  098%=      5-min Rain = 0
KWA1 250445Z 18006KT 14/14 A2992 RMK A01 T01400136  RH  098%=      5-min Rain = 0
KWA1 250446Z 18006KT 14/14 A2992 RMK A01 T01390136  RH  098%=      5-min Rain = 0
KWA1 250447Z 19006KT 14/14 A2992 RMK A01 T01390137  RH  098%=      5-min Rain = 0
KWA1 250448Z 19005KT 14/14 A2992 RMK A01 T01400137  RH  098%=      5-min Rain = 0
KWA1 250449Z 19005KT 14/14 A2992 RMK A01 T01400137  RH  098%=      5-min Rain = 0
KWA1 250450Z 18005KT 14/14 A2992 RMK A01 T01400137  RH  098%=      5-min Rain = 0
KWA1 250451Z 19004KT 14/14 A2992 RMK A01 T01400137  RH  098%=      5-min Rain = 0
KWA1 250452Z 20004KT 14/14 A2992 RMK A01 T01390136  RH  098%=      5-min Rain = 0
KWA1 250453Z 19003KT 14/14 A2992 RMK A01 T01400137  RH  098%=      5-min Rain = 0
KWA1 250454Z 18004KT 14/14 A2992 RMK A01 T01390136  RH  098%=      5-min Rain = 0
KWA1 250455Z 18004KT 14/14 A2992 RMK A01 T01390136  RH  098%=      5-min Rain = 0
KWA1 250456Z 19005KT 14/14 A2992 RMK A01 T01390136  RH  098%=      5-min Rain = 0
KWA1 250457Z 19005KT 14/14 A2992 RMK A01 T01390136  RH  098%=      5-min Rain = 0
KWA1 250458Z 19005KT 14/14 A2992 RMK A01 T01390136  RH  098%=      5-min Rain = 0
KWA1 250459Z 19006KT 14/14 A2992 RMK A01 T01390136  RH  098%=      5-min Rain = 0

Page generated in 0.039 seconds.